<?xml version='1.0' encoding='UTF-8'?><gpx version="1.1" creator="JPX - https://github.com/jenetics/jpx" xmlns="http://www.topografix.com/GPX/1/1"><trk><trkseg><trkpt lat="37.0095627" lon="15.3337362"><ele>17.0</ele><time>2026-04-11T09:21:59.762Z</time></trkpt><trkpt lat="37.0095867" lon="15.3336542"><ele>17.0</ele><time>2026-04-11T09:22:01.763Z</time></trkpt><trkpt lat="37.0096316" lon="15.3335765"><ele>17.0</ele><time>2026-04-11T09:22:03.763Z</time></trkpt><trkpt lat="37.0096257" lon="15.3334682"><ele>17.0</ele><time>2026-04-11T09:22:06.763Z</time></trkpt><trkpt lat="37.0095689" lon="15.3333893"><ele>17.0</ele><time>2026-04-11T09:22:09.763Z</time></trkpt><trkpt lat="37.009525" lon="15.3333216"><ele>17.0</ele><time>2026-04-11T09:22:12.763Z</time></trkpt><trkpt lat="37.0094523" lon="15.3332796"><ele>17.0</ele><time>2026-04-11T09:22:21.763Z</time></trkpt><trkpt lat="37.0094113" lon="15.3332123"><ele>17.0</ele><time>2026-04-11T09:22:24.763Z</time></trkpt><trkpt lat="37.0094251" lon="15.333127"><ele>17.0</ele><time>2026-04-11T09:22:26.763Z</time></trkpt><trkpt lat="37.0094053" lon="15.3330115"><ele>17.0</ele><time>2026-04-11T09:22:29.763Z</time></trkpt><trkpt lat="37.0093435" lon="15.3329372"><ele>17.0</ele><time>2026-04-11T09:22:31.763Z</time></trkpt><trkpt lat="37.0092881" lon="15.3328489"><ele>17.0</ele><time>2026-04-11T09:22:34.763Z</time></trkpt><trkpt lat="37.0092246" lon="15.3327969"><ele>17.333333333333336</ele><time>2026-04-11T09:22:36.763Z</time></trkpt><trkpt lat="37.0092121" lon="15.3327138"><ele>17.666666666666668</ele><time>2026-04-11T09:22:38.762Z</time></trkpt><trkpt lat="37.009256" lon="15.3326002"><ele>18.0</ele><time>2026-04-11T09:22:40.763Z</time></trkpt><trkpt lat="37.0092876" lon="15.3325291"><ele>18.333333333333332</ele><time>2026-04-11T09:22:41.762Z</time></trkpt><trkpt lat="37.0093494" lon="15.3324072"><ele>18.666666666666664</ele><time>2026-04-11T09:22:43.764Z</time></trkpt><trkpt lat="37.0093896" lon="15.332303"><ele>19.0</ele><time>2026-04-11T09:22:45.763Z</time></trkpt><trkpt lat="37.0094437" lon="15.3322012"><ele>19.166666666666664</ele><time>2026-04-11T09:22:47.762Z</time></trkpt><trkpt lat="37.009496" lon="15.3321243"><ele>19.333333333333332</ele><time>2026-04-11T09:22:49.763Z</time></trkpt><trkpt lat="37.0095205" lon="15.3320445"><ele>19.5</ele><time>2026-04-11T09:22:51.763Z</time></trkpt><trkpt lat="37.0095459" lon="15.3319559"><ele>19.666666666666668</ele><time>2026-04-11T09:22:53.764Z</time></trkpt><trkpt lat="37.0095802" lon="15.331855"><ele>19.833333333333336</ele><time>2026-04-11T09:22:55.763Z</time></trkpt><trkpt lat="37.0096258" lon="15.331781"><ele>20.0</ele><time>2026-04-11T09:22:57.762Z</time></trkpt><trkpt lat="37.0096738" lon="15.3317012"><ele>20.0</ele><time>2026-04-11T09:22:59.763Z</time></trkpt><trkpt lat="37.0096917" lon="15.3316246"><ele>20.0</ele><time>2026-04-11T09:23:01.762Z</time></trkpt><trkpt lat="37.0097062" lon="15.3315177"><ele>20.0</ele><time>2026-04-11T09:23:04.763Z</time></trkpt><trkpt lat="37.0097407" lon="15.3314454"><ele>20.0</ele><time>2026-04-11T09:23:06.762Z</time></trkpt><trkpt lat="37.0097971" lon="15.3313868"><ele>20.0</ele><time>2026-04-11T09:23:08.763Z</time></trkpt><trkpt lat="37.0098776" lon="15.3313827"><ele>20.0</ele><time>2026-04-11T09:23:10.763Z</time></trkpt><trkpt lat="37.0099794" lon="15.3314211"><ele>19.8</ele><time>2026-04-11T09:23:12.763Z</time></trkpt><trkpt lat="37.0100881" lon="15.3314419"><ele>19.6</ele><time>2026-04-11T09:23:14.763Z</time></trkpt><trkpt lat="37.01017" lon="15.3314298"><ele>19.4</ele><time>2026-04-11T09:23:16.763Z</time></trkpt><trkpt lat="37.0102547" lon="15.3313784"><ele>19.2</ele><time>2026-04-11T09:23:18.763Z</time></trkpt><trkpt lat="37.0103404" lon="15.3313448"><ele>19.0</ele><time>2026-04-11T09:23:20.763Z</time></trkpt><trkpt lat="37.0104236" lon="15.3313292"><ele>19.333333333333332</ele><time>2026-04-11T09:23:23.763Z</time></trkpt><trkpt lat="37.01049" lon="15.3313074"><ele>19.666666666666664</ele><time>2026-04-11T09:23:25.763Z</time></trkpt><trkpt lat="37.0105778" lon="15.3313191"><ele>20.0</ele><time>2026-04-11T09:23:28.762Z</time></trkpt><trkpt lat="37.0106667" lon="15.3313456"><ele>20.333333333333332</ele><time>2026-04-11T09:23:30.763Z</time></trkpt><trkpt lat="37.0107552" lon="15.3313648"><ele>20.666666666666668</ele><time>2026-04-11T09:23:32.763Z</time></trkpt><trkpt lat="37.0108234" lon="15.3313647"><ele>21.0</ele><time>2026-04-11T09:23:34.762Z</time></trkpt><trkpt lat="37.0109049" lon="15.3313688"><ele>21.0</ele><time>2026-04-11T09:23:37.763Z</time></trkpt><trkpt lat="37.0109787" lon="15.3313546"><ele>21.0</ele><time>2026-04-11T09:23:40.763Z</time></trkpt><trkpt lat="37.0110456" lon="15.3313517"><ele>21.0</ele><time>2026-04-11T09:23:48.763Z</time></trkpt><trkpt lat="37.011108" lon="15.3313268"><ele>21.0</ele><time>2026-04-11T09:23:56.762Z</time></trkpt><trkpt lat="37.0111905" lon="15.33136"><ele>21.0</ele><time>2026-04-11T09:24:03.763Z</time></trkpt><trkpt lat="37.0112536" lon="15.3313796"><ele>21.0</ele><time>2026-04-11T09:24:06.762Z</time></trkpt><trkpt lat="37.0113199" lon="15.3313922"><ele>21.0</ele><time>2026-04-11T09:24:38.763Z</time></trkpt><trkpt lat="37.0113785" lon="15.3314414"><ele>21.0</ele><time>2026-04-11T09:24:41.763Z</time></trkpt><trkpt lat="37.0114583" lon="15.3314155"><ele>21.0</ele><time>2026-04-11T09:24:46.763Z</time></trkpt><trkpt lat="37.0115245" lon="15.3313555"><ele>21.0</ele><time>2026-04-11T09:24:49.763Z</time></trkpt><trkpt lat="37.0115965" lon="15.3313387"><ele>21.0</ele><time>2026-04-11T09:24:51.762Z</time></trkpt><trkpt lat="37.0116697" lon="15.3313444"><ele>21.0</ele><time>2026-04-11T09:24:53.763Z</time></trkpt><trkpt lat="37.0117409" lon="15.3313559"><ele>21.0</ele><time>2026-04-11T09:24:55.762Z</time></trkpt><trkpt lat="37.0118089" lon="15.331357"><ele>20.8</ele><time>2026-04-11T09:24:57.762Z</time></trkpt><trkpt lat="37.0118959" lon="15.3313585"><ele>20.6</ele><time>2026-04-11T09:25:00.763Z</time></trkpt><trkpt lat="37.0119686" lon="15.3313503"><ele>20.4</ele><time>2026-04-11T09:25:03.763Z</time></trkpt><trkpt lat="37.0120199" lon="15.3312888"><ele>20.2</ele><time>2026-04-11T09:25:07.763Z</time></trkpt><trkpt lat="37.0121023" lon="15.3312362"><ele>20.0</ele><time>2026-04-11T09:26:07.764Z</time></trkpt><trkpt lat="37.0122271" lon="15.3311442"><ele>20.0</ele><time>2026-04-11T09:26:09.763Z</time></trkpt><trkpt lat="37.0122873" lon="15.3311013"><ele>20.0</ele><time>2026-04-11T09:26:10.762Z</time></trkpt><trkpt lat="37.0123467" lon="15.3310548"><ele>20.0</ele><time>2026-04-11T09:26:11.763Z</time></trkpt><trkpt lat="37.0124215" lon="15.3310053"><ele>20.0</ele><time>2026-04-11T09:26:12.762Z</time></trkpt><trkpt lat="37.0125197" lon="15.3309576"><ele>20.0</ele><time>2026-04-11T09:26:14.763Z</time></trkpt><trkpt lat="37.0126403" lon="15.3309312"><ele>19.833333333333336</ele><time>2026-04-11T09:26:16.763Z</time></trkpt><trkpt lat="37.0127375" lon="15.3309228"><ele>19.666666666666668</ele><time>2026-04-11T09:26:18.762Z</time></trkpt><trkpt lat="37.0128027" lon="15.330967"><ele>19.5</ele><time>2026-04-11T09:26:20.762Z</time></trkpt><trkpt lat="37.0128653" lon="15.3309824"><ele>19.333333333333332</ele><time>2026-04-11T09:26:22.762Z</time></trkpt><trkpt lat="37.0128271" lon="15.3309089"><ele>19.166666666666664</ele><time>2026-04-11T09:26:29.762Z</time></trkpt><trkpt lat="37.012711" lon="15.3309218"><ele>19.0</ele><time>2026-04-11T09:26:31.762Z</time></trkpt><trkpt lat="37.0126072" lon="15.3309335"><ele>19.0</ele><time>2026-04-11T09:26:33.762Z</time></trkpt><trkpt lat="37.0124897" lon="15.33097"><ele>19.0</ele><time>2026-04-11T09:26:35.762Z</time></trkpt><trkpt lat="37.0123628" lon="15.3310444"><ele>19.0</ele><time>2026-04-11T09:26:37.762Z</time></trkpt><trkpt lat="37.012271" lon="15.3311118"><ele>19.0</ele><time>2026-04-11T09:26:38.761Z</time></trkpt><trkpt lat="37.0122044" lon="15.3311603"><ele>19.0</ele><time>2026-04-11T09:26:39.762Z</time></trkpt><trkpt lat="37.0121235" lon="15.3312195"><ele>19.2</ele><time>2026-04-11T09:26:41.762Z</time></trkpt><trkpt lat="37.0120427" lon="15.331259"><ele>19.4</ele><time>2026-04-11T09:26:44.761Z</time></trkpt><trkpt lat="37.0119817" lon="15.3313221"><ele>19.6</ele><time>2026-04-11T09:26:48.762Z</time></trkpt><trkpt lat="37.0120643" lon="15.3312572"><ele>19.8</ele><time>2026-04-11T09:29:31.762Z</time></trkpt><trkpt lat="37.0121559" lon="15.331202"><ele>20.0</ele><time>2026-04-11T09:29:33.762Z</time></trkpt><trkpt lat="37.0122596" lon="15.3311241"><ele>20.0</ele><time>2026-04-11T09:29:35.762Z</time></trkpt><trkpt lat="37.0123213" lon="15.3310793"><ele>20.0</ele><time>2026-04-11T09:29:36.761Z</time></trkpt><trkpt lat="37.0123765" lon="15.3310375"><ele>20.0</ele><time>2026-04-11T09:29:37.762Z</time></trkpt><trkpt lat="37.012471" lon="15.3309786"><ele>20.0</ele><time>2026-04-11T09:29:39.761Z</time></trkpt><trkpt lat="37.0125595" lon="15.3309512"><ele>20.0</ele><time>2026-04-11T09:29:41.762Z</time></trkpt><trkpt lat="37.0126756" lon="15.3309252"><ele>19.8</ele><time>2026-04-11T09:29:43.762Z</time></trkpt><trkpt lat="37.012784" lon="15.3309184"><ele>19.6</ele><time>2026-04-11T09:29:45.762Z</time></trkpt><trkpt lat="37.012885" lon="15.3308861"><ele>19.4</ele><time>2026-04-11T09:29:47.761Z</time></trkpt><trkpt lat="37.0129647" lon="15.3308322"><ele>19.2</ele><time>2026-04-11T09:29:49.762Z</time></trkpt><trkpt lat="37.0130677" lon="15.3307938"><ele>19.0</ele><time>2026-04-11T09:29:51.761Z</time></trkpt><trkpt lat="37.0131754" lon="15.3307491"><ele>19.0</ele><time>2026-04-11T09:29:53.762Z</time></trkpt><trkpt lat="37.0132634" lon="15.3307027"><ele>19.0</ele><time>2026-04-11T09:29:55.762Z</time></trkpt><trkpt lat="37.0133397" lon="15.3306246"><ele>19.0</ele><time>2026-04-11T09:29:57.761Z</time></trkpt><trkpt lat="37.0134063" lon="15.3305979"><ele>19.0</ele><time>2026-04-11T09:29:59.761Z</time></trkpt><trkpt lat="37.0134978" lon="15.3305724"><ele>19.0</ele><time>2026-04-11T09:30:02.762Z</time></trkpt><trkpt lat="37.0135717" lon="15.3305464"><ele>19.0</ele><time>2026-04-11T09:30:05.762Z</time></trkpt><trkpt lat="37.0136347" lon="15.3305567"><ele>18.833333333333332</ele><time>2026-04-11T09:30:07.762Z</time></trkpt><trkpt lat="37.0137029" lon="15.3306"><ele>18.666666666666664</ele><time>2026-04-11T09:30:09.762Z</time></trkpt><trkpt lat="37.0137649" lon="15.3306282"><ele>18.5</ele><time>2026-04-11T09:30:12.762Z</time></trkpt><trkpt lat="37.0138252" lon="15.3306572"><ele>18.333333333333332</ele><time>2026-04-11T09:30:14.762Z</time></trkpt><trkpt lat="37.0138888" lon="15.330593"><ele>18.166666666666668</ele><time>2026-04-11T09:30:16.761Z</time></trkpt><trkpt lat="37.0139425" lon="15.3304857"><ele>18.0</ele><time>2026-04-11T09:30:18.761Z</time></trkpt><trkpt lat="37.0139716" lon="15.3303751"><ele>18.333333333333332</ele><time>2026-04-11T09:30:20.762Z</time></trkpt><trkpt lat="37.0140109" lon="15.3302505"><ele>18.666666666666668</ele><time>2026-04-11T09:30:22.762Z</time></trkpt><trkpt lat="37.0140424" lon="15.3301326"><ele>19.0</ele><time>2026-04-11T09:30:24.762Z</time></trkpt><trkpt lat="37.0141009" lon="15.3300777"><ele>19.333333333333336</ele><time>2026-04-11T09:30:26.761Z</time></trkpt><trkpt lat="37.0141825" lon="15.3300549"><ele>19.666666666666668</ele><time>2026-04-11T09:30:28.762Z</time></trkpt><trkpt lat="37.0142475" lon="15.3300346"><ele>20.0</ele><time>2026-04-11T09:30:30.762Z</time></trkpt><trkpt lat="37.0143078" lon="15.3299677"><ele>20.0</ele><time>2026-04-11T09:30:32.761Z</time></trkpt><trkpt lat="37.0143738" lon="15.3299184"><ele>20.0</ele><time>2026-04-11T09:30:35.762Z</time></trkpt><trkpt lat="37.0144371" lon="15.3299003"><ele>20.0</ele><time>2026-04-11T09:30:37.762Z</time></trkpt><trkpt lat="37.0145169" lon="15.3298789"><ele>20.0</ele><time>2026-04-11T09:30:40.762Z</time></trkpt><trkpt lat="37.0145822" lon="15.3298231"><ele>20.0</ele><time>2026-04-11T09:30:42.762Z</time></trkpt><trkpt lat="37.014641" lon="15.3297807"><ele>20.0</ele><time>2026-04-11T09:30:44.762Z</time></trkpt><trkpt lat="37.0147084" lon="15.3297396"><ele>20.0</ele><time>2026-04-11T09:30:47.761Z</time></trkpt><trkpt lat="37.014775" lon="15.3297198"><ele>20.0</ele><time>2026-04-11T09:30:50.762Z</time></trkpt><trkpt lat="37.0148403" lon="15.3296967"><ele>20.0</ele><time>2026-04-11T09:30:53.762Z</time></trkpt><trkpt lat="37.014886" lon="15.3296161"><ele>20.0</ele><time>2026-04-11T09:31:00.762Z</time></trkpt><trkpt lat="37.0149312" lon="15.3295459"><ele>20.0</ele><time>2026-04-11T09:31:02.762Z</time></trkpt><trkpt lat="37.0149821" lon="15.3294581"><ele>20.0</ele><time>2026-04-11T09:31:04.761Z</time></trkpt><trkpt lat="37.0150187" lon="15.3293815"><ele>20.0</ele><time>2026-04-11T09:31:06.76Z</time></trkpt><trkpt lat="37.0150603" lon="15.3293051"><ele>20.0</ele><time>2026-04-11T09:31:08.761Z</time></trkpt><trkpt lat="37.0151135" lon="15.3292235"><ele>20.0</ele><time>2026-04-11T09:31:11.762Z</time></trkpt><trkpt lat="37.0151681" lon="15.3291425"><ele>20.0</ele><time>2026-04-11T09:31:14.761Z</time></trkpt><trkpt lat="37.0151942" lon="15.3290632"><ele>20.0</ele><time>2026-04-11T09:31:16.76Z</time></trkpt><trkpt lat="37.0152297" lon="15.3289826"><ele>20.0</ele><time>2026-04-11T09:31:18.761Z</time></trkpt><trkpt lat="37.0152642" lon="15.3288819"><ele>20.0</ele><time>2026-04-11T09:31:21.761Z</time></trkpt><trkpt lat="37.015283" lon="15.3288054"><ele>20.333333333333336</ele><time>2026-04-11T09:31:23.761Z</time></trkpt><trkpt lat="37.0153579" lon="15.328753"><ele>20.666666666666668</ele><time>2026-04-11T09:31:26.761Z</time></trkpt><trkpt lat="37.0154404" lon="15.3287346"><ele>21.0</ele><time>2026-04-11T09:31:28.761Z</time></trkpt><trkpt lat="37.0155035" lon="15.3287132"><ele>21.333333333333332</ele><time>2026-04-11T09:31:30.76Z</time></trkpt><trkpt lat="37.015559" lon="15.3286253"><ele>21.666666666666664</ele><time>2026-04-11T09:31:32.761Z</time></trkpt><trkpt lat="37.0156461" lon="15.3285703"><ele>22.0</ele><time>2026-04-11T09:31:35.76Z</time></trkpt><trkpt lat="37.0157317" lon="15.3285415"><ele>22.0</ele><time>2026-04-11T09:31:37.761Z</time></trkpt><trkpt lat="37.0158174" lon="15.3284866"><ele>22.0</ele><time>2026-04-11T09:31:39.76Z</time></trkpt><trkpt lat="37.0158899" lon="15.3284069"><ele>22.0</ele><time>2026-04-11T09:31:41.761Z</time></trkpt><trkpt lat="37.015971" lon="15.3282997"><ele>22.0</ele><time>2026-04-11T09:31:43.76Z</time></trkpt><trkpt lat="37.0160499" lon="15.3282128"><ele>22.0</ele><time>2026-04-11T09:31:45.76Z</time></trkpt><trkpt lat="37.0161092" lon="15.328146"><ele>22.142857142857142</ele><time>2026-04-11T09:31:47.761Z</time></trkpt><trkpt lat="37.0161436" lon="15.3280496"><ele>22.285714285714285</ele><time>2026-04-11T09:31:49.76Z</time></trkpt><trkpt lat="37.0161525" lon="15.3279434"><ele>22.42857142857143</ele><time>2026-04-11T09:31:51.761Z</time></trkpt><trkpt lat="37.0161877" lon="15.3278736"><ele>22.57142857142857</ele><time>2026-04-11T09:31:53.76Z</time></trkpt><trkpt lat="37.0162221" lon="15.32779"><ele>22.71428571428571</ele><time>2026-04-11T09:32:07.761Z</time></trkpt><trkpt lat="37.0162591" lon="15.3277229"><ele>22.857142857142858</ele><time>2026-04-11T09:32:09.761Z</time></trkpt><trkpt lat="37.0162707" lon="15.327643"><ele>23.0</ele><time>2026-04-11T09:32:11.761Z</time></trkpt><trkpt lat="37.0162881" lon="15.3275309"><ele>23.0</ele><time>2026-04-11T09:32:14.761Z</time></trkpt><trkpt lat="37.0163119" lon="15.3274415"><ele>23.0</ele><time>2026-04-11T09:32:17.76Z</time></trkpt><trkpt lat="37.0163293" lon="15.3273624"><ele>23.0</ele><time>2026-04-11T09:32:19.76Z</time></trkpt><trkpt lat="37.0163721" lon="15.3272878"><ele>23.0</ele><time>2026-04-11T09:32:21.76Z</time></trkpt><trkpt lat="37.0164294" lon="15.3272173"><ele>23.0</ele><time>2026-04-11T09:32:23.761Z</time></trkpt><trkpt lat="37.0164816" lon="15.3271527"><ele>23.0</ele><time>2026-04-11T09:32:25.761Z</time></trkpt><trkpt lat="37.0165311" lon="15.3270605"><ele>23.333333333333336</ele><time>2026-04-11T09:32:27.761Z</time></trkpt><trkpt lat="37.016577" lon="15.3269949"><ele>23.666666666666668</ele><time>2026-04-11T09:32:29.761Z</time></trkpt><trkpt lat="37.0166449" lon="15.3269303"><ele>24.0</ele><time>2026-04-11T09:32:32.761Z</time></trkpt><trkpt lat="37.0167037" lon="15.3268454"><ele>24.333333333333336</ele><time>2026-04-11T09:32:35.76Z</time></trkpt><trkpt lat="37.0167623" lon="15.3267653"><ele>24.666666666666668</ele><time>2026-04-11T09:32:37.761Z</time></trkpt><trkpt lat="37.0168133" lon="15.3267066"><ele>25.0</ele><time>2026-04-11T09:32:39.761Z</time></trkpt><trkpt lat="37.0168526" lon="15.3266229"><ele>25.000000000000004</ele><time>2026-04-11T09:32:41.761Z</time></trkpt><trkpt lat="37.0169265" lon="15.3265483"><ele>25.0</ele><time>2026-04-11T09:32:44.76Z</time></trkpt><trkpt lat="37.016995" lon="15.3264968"><ele>25.0</ele><time>2026-04-11T09:32:46.761Z</time></trkpt><trkpt lat="37.0170637" lon="15.32643"><ele>25.0</ele><time>2026-04-11T09:32:48.761Z</time></trkpt><trkpt lat="37.0171221" lon="15.3263666"><ele>25.000000000000004</ele><time>2026-04-11T09:32:50.76Z</time></trkpt><trkpt lat="37.0171711" lon="15.326267"><ele>25.0</ele><time>2026-04-11T09:32:52.761Z</time></trkpt><trkpt lat="37.0172199" lon="15.3261981"><ele>25.000000000000004</ele><time>2026-04-11T09:32:54.761Z</time></trkpt><trkpt lat="37.0172554" lon="15.3261278"><ele>25.0</ele><time>2026-04-11T09:32:56.761Z</time></trkpt><trkpt lat="37.0172551" lon="15.3260437"><ele>25.0</ele><time>2026-04-11T09:32:58.76Z</time></trkpt><trkpt lat="37.0172598" lon="15.3259641"><ele>25.0</ele><time>2026-04-11T09:33:00.76Z</time></trkpt><trkpt lat="37.0173341" lon="15.325915"><ele>25.0</ele><time>2026-04-11T09:33:03.76Z</time></trkpt><trkpt lat="37.0174132" lon="15.3259256"><ele>25.000000000000004</ele><time>2026-04-11T09:33:06.76Z</time></trkpt><trkpt lat="37.0174953" lon="15.3258844"><ele>25.0</ele><time>2026-04-11T09:33:09.761Z</time></trkpt><trkpt lat="37.017541" lon="15.3258112"><ele>25.0</ele><time>2026-04-11T09:33:11.76Z</time></trkpt><trkpt lat="37.0175627" lon="15.3257003"><ele>25.0</ele><time>2026-04-11T09:33:13.761Z</time></trkpt><trkpt lat="37.017578" lon="15.3255692"><ele>25.0</ele><time>2026-04-11T09:33:15.761Z</time></trkpt><trkpt lat="37.0176128" lon="15.3254539"><ele>25.0</ele><time>2026-04-11T09:33:17.76Z</time></trkpt><trkpt lat="37.017644" lon="15.3253417"><ele>25.0</ele><time>2026-04-11T09:33:19.76Z</time></trkpt><trkpt lat="37.0176693" lon="15.3252426"><ele>25.42857142857143</ele><time>2026-04-11T09:33:21.761Z</time></trkpt><trkpt lat="37.0176803" lon="15.3251515"><ele>25.857142857142858</ele><time>2026-04-11T09:33:23.761Z</time></trkpt><trkpt lat="37.0176893" lon="15.3250501"><ele>26.285714285714285</ele><time>2026-04-11T09:33:26.761Z</time></trkpt><trkpt lat="37.0176862" lon="15.3249698"><ele>26.714285714285715</ele><time>2026-04-11T09:33:28.76Z</time></trkpt><trkpt lat="37.0176712" lon="15.3248664"><ele>27.142857142857142</ele><time>2026-04-11T09:33:30.76Z</time></trkpt><trkpt lat="37.0176622" lon="15.324778"><ele>27.571428571428573</ele><time>2026-04-11T09:33:32.761Z</time></trkpt><trkpt lat="37.017646" lon="15.3246905"><ele>28.0</ele><time>2026-04-11T09:33:34.761Z</time></trkpt><trkpt lat="37.017648" lon="15.3245826"><ele>28.500000000000004</ele><time>2026-04-11T09:33:36.76Z</time></trkpt><trkpt lat="37.0176809" lon="15.3244635"><ele>29.0</ele><time>2026-04-11T09:33:38.761Z</time></trkpt><trkpt lat="37.0177129" lon="15.3243609"><ele>29.5</ele><time>2026-04-11T09:33:40.76Z</time></trkpt><trkpt lat="37.0177569" lon="15.3242508"><ele>30.0</ele><time>2026-04-11T09:33:43.761Z</time></trkpt><trkpt lat="37.0178421" lon="15.324224"><ele>30.500000000000004</ele><time>2026-04-11T09:33:46.761Z</time></trkpt><trkpt lat="37.017903" lon="15.3242503"><ele>31.0</ele><time>2026-04-11T09:33:48.761Z</time></trkpt><trkpt lat="37.0179663" lon="15.3242539"><ele>31.0</ele><time>2026-04-11T09:33:50.76Z</time></trkpt><trkpt lat="37.0180444" lon="15.3241859"><ele>31.0</ele><time>2026-04-11T09:33:52.761Z</time></trkpt><trkpt lat="37.0181058" lon="15.3241346"><ele>31.0</ele><time>2026-04-11T09:33:54.761Z</time></trkpt></trkseg><trkseg><trkpt lat="37.0181846" lon="15.3240834"><ele>31.000000000000004</ele><time>2026-04-11T09:56:21.755Z</time></trkpt><trkpt lat="37.0182437" lon="15.3240018"><ele>31.0</ele><time>2026-04-11T09:56:34.756Z</time></trkpt><trkpt lat="37.0182911" lon="15.3239481"><ele>31.0</ele><time>2026-04-11T09:56:36.756Z</time></trkpt><trkpt lat="37.0183447" lon="15.3238834"><ele>31.0</ele><time>2026-04-11T09:56:38.755Z</time></trkpt><trkpt lat="37.0183682" lon="15.3238019"><ele>31.000000000000004</ele><time>2026-04-11T09:56:40.756Z</time></trkpt><trkpt lat="37.0184116" lon="15.3237063"><ele>31.0</ele><time>2026-04-11T09:56:43.755Z</time></trkpt><trkpt lat="37.0184299" lon="15.3235969"><ele>30.333333333333336</ele><time>2026-04-11T09:56:46.756Z</time></trkpt><trkpt lat="37.0184691" lon="15.3235147"><ele>29.666666666666668</ele><time>2026-04-11T09:56:49.756Z</time></trkpt><trkpt lat="37.018484" lon="15.3234102"><ele>29.0</ele><time>2026-04-11T09:56:52.756Z</time></trkpt><trkpt lat="37.0184865" lon="15.3233257"><ele>28.333333333333336</ele><time>2026-04-11T09:56:54.756Z</time></trkpt><trkpt lat="37.018506" lon="15.3232412"><ele>27.666666666666668</ele><time>2026-04-11T09:56:58.755Z</time></trkpt><trkpt lat="37.0185829" lon="15.3232097"><ele>27.0</ele><time>2026-04-11T09:57:03.756Z</time></trkpt><trkpt lat="37.0186503" lon="15.3231793"><ele>27.0</ele><time>2026-04-11T09:57:05.755Z</time></trkpt><trkpt lat="37.0187055" lon="15.3230905"><ele>27.0</ele><time>2026-04-11T09:57:07.755Z</time></trkpt><trkpt lat="37.0187943" lon="15.3230248"><ele>27.0</ele><time>2026-04-11T09:57:09.756Z</time></trkpt><trkpt lat="37.0188736" lon="15.3230115"><ele>27.0</ele><time>2026-04-11T09:57:11.756Z</time></trkpt><trkpt lat="37.0189424" lon="15.323006"><ele>27.0</ele><time>2026-04-11T09:57:14.755Z</time></trkpt><trkpt lat="37.0190206" lon="15.3230129"><ele>27.0</ele><time>2026-04-11T09:57:17.756Z</time></trkpt><trkpt lat="37.0190965" lon="15.323008"><ele>26.714285714285715</ele><time>2026-04-11T09:57:20.756Z</time></trkpt><trkpt lat="37.0191705" lon="15.3229772"><ele>26.428571428571427</ele><time>2026-04-11T09:57:23.756Z</time></trkpt><trkpt lat="37.0192374" lon="15.3229435"><ele>26.142857142857146</ele><time>2026-04-11T09:57:26.756Z</time></trkpt><trkpt lat="37.0192884" lon="15.322864"><ele>25.857142857142858</ele><time>2026-04-11T10:03:36.754Z</time></trkpt><trkpt lat="37.0193331" lon="15.3228064"><ele>25.571428571428573</ele><time>2026-04-11T10:03:39.753Z</time></trkpt><trkpt lat="37.0193852" lon="15.3227546"><ele>25.28571428571429</ele><time>2026-04-11T10:03:43.754Z</time></trkpt><trkpt lat="37.0194293" lon="15.3226761"><ele>25.0</ele><time>2026-04-11T10:03:46.754Z</time></trkpt><trkpt lat="37.019478" lon="15.3225653"><ele>25.000000000000004</ele><time>2026-04-11T10:03:49.754Z</time></trkpt><trkpt lat="37.0195458" lon="15.3224721"><ele>25.0</ele><time>2026-04-11T10:03:51.754Z</time></trkpt><trkpt lat="37.01959" lon="15.322411"><ele>25.0</ele><time>2026-04-11T10:06:03.753Z</time></trkpt><trkpt lat="37.0196271" lon="15.3223415"><ele>25.0</ele><time>2026-04-11T10:06:05.754Z</time></trkpt><trkpt lat="37.0196642" lon="15.3222389"><ele>25.000000000000004</ele><time>2026-04-11T10:06:07.754Z</time></trkpt><trkpt lat="37.0196953" lon="15.3221408"><ele>25.0</ele><time>2026-04-11T10:06:09.754Z</time></trkpt><trkpt lat="37.0197658" lon="15.3220807"><ele>26.166666666666668</ele><time>2026-04-11T10:06:12.753Z</time></trkpt><trkpt lat="37.0198433" lon="15.3220405"><ele>27.333333333333336</ele><time>2026-04-11T10:06:15.754Z</time></trkpt><trkpt lat="37.0199191" lon="15.3219994"><ele>28.5</ele><time>2026-04-11T10:06:18.753Z</time></trkpt><trkpt lat="37.0199828" lon="15.3219476"><ele>29.666666666666664</ele><time>2026-04-11T10:06:21.753Z</time></trkpt><trkpt lat="37.0200491" lon="15.3219212"><ele>30.833333333333332</ele><time>2026-04-11T10:06:23.754Z</time></trkpt><trkpt lat="37.0201329" lon="15.3219237"><ele>32.0</ele><time>2026-04-11T10:06:26.753Z</time></trkpt><trkpt lat="37.0201954" lon="15.3218607"><ele>29.200000000000003</ele><time>2026-04-11T10:06:28.754Z</time></trkpt><trkpt lat="37.0202701" lon="15.3218179"><ele>26.400000000000002</ele><time>2026-04-11T10:06:30.754Z</time></trkpt><trkpt lat="37.0203715" lon="15.321757"><ele>23.6</ele><time>2026-04-11T10:06:32.754Z</time></trkpt><trkpt lat="37.0204899" lon="15.3217586"><ele>20.8</ele><time>2026-04-11T10:06:34.754Z</time></trkpt><trkpt lat="37.0205605" lon="15.321763"><ele>18.0</ele><time>2026-04-11T10:06:35.753Z</time></trkpt><trkpt lat="37.0206272" lon="15.3217545"><ele>18.0</ele><time>2026-04-11T10:06:36.753Z</time></trkpt><trkpt lat="37.0206918" lon="15.3217356"><ele>18.0</ele><time>2026-04-11T10:06:37.754Z</time></trkpt><trkpt lat="37.0207567" lon="15.321707"><ele>18.0</ele><time>2026-04-11T10:06:38.753Z</time></trkpt><trkpt lat="37.0208813" lon="15.3216966"><ele>18.0</ele><time>2026-04-11T10:06:40.753Z</time></trkpt><trkpt lat="37.0209616" lon="15.3216978"><ele>18.0</ele><time>2026-04-11T10:06:41.754Z</time></trkpt><trkpt lat="37.0210378" lon="15.3216983"><ele>18.0</ele><time>2026-04-11T10:06:42.753Z</time></trkpt><trkpt lat="37.0211184" lon="15.3217016"><ele>17.166666666666668</ele><time>2026-04-11T10:06:43.754Z</time></trkpt><trkpt lat="37.021203" lon="15.321698"><ele>16.333333333333332</ele><time>2026-04-11T10:06:44.753Z</time></trkpt><trkpt lat="37.0212773" lon="15.3216933"><ele>15.5</ele><time>2026-04-11T10:06:45.754Z</time></trkpt><trkpt lat="37.0213497" lon="15.3216817"><ele>14.666666666666666</ele><time>2026-04-11T10:06:46.754Z</time></trkpt><trkpt lat="37.0214148" lon="15.3216594"><ele>13.833333333333332</ele><time>2026-04-11T10:06:47.754Z</time></trkpt><trkpt lat="37.0214788" lon="15.3216202"><ele>13.0</ele><time>2026-04-11T10:06:48.754Z</time></trkpt><trkpt lat="37.021557" lon="15.3215669"><ele>12.999999999999998</ele><time>2026-04-11T10:06:49.753Z</time></trkpt><trkpt lat="37.021621" lon="15.3215332"><ele>13.0</ele><time>2026-04-11T10:06:50.754Z</time></trkpt><trkpt lat="37.021687" lon="15.3215112"><ele>13.0</ele><time>2026-04-11T10:06:51.754Z</time></trkpt><trkpt lat="37.0217595" lon="15.3214748"><ele>13.0</ele><time>2026-04-11T10:06:53.753Z</time></trkpt><trkpt lat="37.0218396" lon="15.3214467"><ele>12.999999999999998</ele><time>2026-04-11T10:06:58.753Z</time></trkpt><trkpt lat="37.021919" lon="15.3214816"><ele>13.0</ele><time>2026-04-11T10:07:00.753Z</time></trkpt><trkpt lat="37.022008" lon="15.3215439"><ele>12.666666666666666</ele><time>2026-04-11T10:07:02.753Z</time></trkpt><trkpt lat="37.0220773" lon="15.3215884"><ele>12.333333333333332</ele><time>2026-04-11T10:07:04.753Z</time></trkpt><trkpt lat="37.0221238" lon="15.3216778"><ele>12.0</ele><time>2026-04-11T10:07:07.752Z</time></trkpt><trkpt lat="37.0221826" lon="15.3217495"><ele>11.666666666666666</ele><time>2026-04-11T10:07:10.753Z</time></trkpt><trkpt lat="37.022256" lon="15.3217625"><ele>11.333333333333332</ele><time>2026-04-11T10:07:13.753Z</time></trkpt><trkpt lat="37.0223187" lon="15.3217014"><ele>11.0</ele><time>2026-04-11T10:07:16.753Z</time></trkpt><trkpt lat="37.0223875" lon="15.3216232"><ele>11.0</ele><time>2026-04-11T10:07:18.753Z</time></trkpt><trkpt lat="37.0224691" lon="15.3215848"><ele>11.0</ele><time>2026-04-11T10:07:20.753Z</time></trkpt><trkpt lat="37.022561" lon="15.3215732"><ele>11.0</ele><time>2026-04-11T10:07:22.753Z</time></trkpt><trkpt lat="37.0226268" lon="15.3215398"><ele>11.0</ele><time>2026-04-11T10:07:24.753Z</time></trkpt><trkpt lat="37.022676" lon="15.3214848"><ele>11.0</ele><time>2026-04-11T10:07:26.753Z</time></trkpt><trkpt lat="37.0227215" lon="15.321417"><ele>11.0</ele><time>2026-04-11T10:07:28.753Z</time></trkpt><trkpt lat="37.0227812" lon="15.3213503"><ele>11.833333333333332</ele><time>2026-04-11T10:07:30.752Z</time></trkpt><trkpt lat="37.0228241" lon="15.3212734"><ele>12.666666666666666</ele><time>2026-04-11T10:07:33.753Z</time></trkpt><trkpt lat="37.0229095" lon="15.3212183"><ele>13.5</ele><time>2026-04-11T10:07:36.752Z</time></trkpt><trkpt lat="37.0229672" lon="15.3211796"><ele>14.333333333333332</ele><time>2026-04-11T10:07:38.752Z</time></trkpt><trkpt lat="37.0229919" lon="15.3210931"><ele>15.166666666666666</ele><time>2026-04-11T10:07:40.753Z</time></trkpt><trkpt lat="37.0230074" lon="15.3209766"><ele>16.0</ele><time>2026-04-11T10:07:42.752Z</time></trkpt><trkpt lat="37.0230604" lon="15.3208771"><ele>15.999999999999998</ele><time>2026-04-11T10:07:45.752Z</time></trkpt><trkpt lat="37.023111" lon="15.3207702"><ele>16.0</ele><time>2026-04-11T10:07:47.753Z</time></trkpt><trkpt lat="37.0231433" lon="15.3206577"><ele>16.0</ele><time>2026-04-11T10:07:49.752Z</time></trkpt><trkpt lat="37.0231701" lon="15.320555"><ele>16.0</ele><time>2026-04-11T10:07:51.753Z</time></trkpt><trkpt lat="37.0231959" lon="15.3204768"><ele>15.999999999999998</ele><time>2026-04-11T10:07:53.753Z</time></trkpt><trkpt lat="37.0232122" lon="15.3203993"><ele>16.0</ele><time>2026-04-11T10:07:55.752Z</time></trkpt><trkpt lat="37.0232684" lon="15.3203066"><ele>21.0</ele><time>2026-04-11T10:07:58.753Z</time></trkpt><trkpt lat="37.0233084" lon="15.3202172"><ele>21.0</ele><time>2026-04-11T10:08:00.753Z</time></trkpt><trkpt lat="37.0233525" lon="15.3201397"><ele>8.0</ele><time>2026-04-11T10:08:03.753Z</time></trkpt><trkpt lat="37.023385" lon="15.3200631"><ele>8.0</ele><time>2026-04-11T10:08:06.753Z</time></trkpt><trkpt lat="37.0233727" lon="15.319979"><ele>8.0</ele><time>2026-04-11T10:08:10.752Z</time></trkpt></trkseg><trkseg><trkpt lat="37.0233469" lon="15.3198839"><ele>7.999999999999999</ele><time>2026-04-11T10:36:47.747Z</time></trkpt><trkpt lat="37.0233447" lon="15.3197843"><ele>8.0</ele><time>2026-04-11T10:36:49.747Z</time></trkpt><trkpt lat="37.0233303" lon="15.3196841"><ele>8.0</ele><time>2026-04-11T10:36:51.747Z</time></trkpt><trkpt lat="37.0233351" lon="15.3195864"><ele>8.0</ele><time>2026-04-11T10:36:53.747Z</time></trkpt><trkpt lat="37.023372" lon="15.3195091"><ele>7.999999999999999</ele><time>2026-04-11T10:36:55.747Z</time></trkpt><trkpt lat="37.0234061" lon="15.3194006"><ele>8.0</ele><time>2026-04-11T10:36:58.746Z</time></trkpt><trkpt lat="37.0234367" lon="15.3193145"><ele>8.0</ele><time>2026-04-11T10:37:00.747Z</time></trkpt><trkpt lat="37.0234449" lon="15.3192168"><ele>7.999999999999999</ele><time>2026-04-11T10:37:02.747Z</time></trkpt><trkpt lat="37.0234446" lon="15.3191219"><ele>8.0</ele><time>2026-04-11T10:37:04.747Z</time></trkpt><trkpt lat="37.0233977" lon="15.3190379"><ele>8.0</ele><time>2026-04-11T10:37:23.747Z</time></trkpt><trkpt lat="37.0233585" lon="15.3189608"><ele>7.999999999999999</ele><time>2026-04-11T10:37:26.747Z</time></trkpt><trkpt lat="37.0233769" lon="15.3188789"><ele>8.0</ele><time>2026-04-11T10:37:34.747Z</time></trkpt><trkpt lat="37.0234028" lon="15.3187958"><ele>8.0</ele><time>2026-04-11T10:37:41.747Z</time></trkpt><trkpt lat="37.0234626" lon="15.3187454"><ele>8.571428571428571</ele><time>2026-04-11T10:37:44.747Z</time></trkpt><trkpt lat="37.0235529" lon="15.3186995"><ele>9.142857142857142</ele><time>2026-04-11T10:37:47.747Z</time></trkpt><trkpt lat="37.0236163" lon="15.3187017"><ele>9.714285714285714</ele><time>2026-04-11T10:37:49.747Z</time></trkpt><trkpt lat="37.0236809" lon="15.3186578"><ele>10.285714285714285</ele><time>2026-04-11T10:37:55.746Z</time></trkpt><trkpt lat="37.0237157" lon="15.3185898"><ele>10.857142857142858</ele><time>2026-04-11T10:38:08.746Z</time></trkpt><trkpt lat="37.0237874" lon="15.3186108"><ele>11.428571428571427</ele><time>2026-04-11T10:38:14.747Z</time></trkpt><trkpt lat="37.0238489" lon="15.3186501"><ele>12.0</ele><time>2026-04-11T10:38:16.747Z</time></trkpt><trkpt lat="37.0238942" lon="15.3187057"><ele>12.0</ele><time>2026-04-11T10:38:18.747Z</time></trkpt><trkpt lat="37.0239454" lon="15.3187795"><ele>12.0</ele><time>2026-04-11T10:38:20.746Z</time></trkpt><trkpt lat="37.0240096" lon="15.3188628"><ele>12.0</ele><time>2026-04-11T10:38:22.747Z</time></trkpt><trkpt lat="37.0240848" lon="15.3189277"><ele>12.0</ele><time>2026-04-11T10:38:24.747Z</time></trkpt><trkpt lat="37.0241409" lon="15.3189949"><ele>12.0</ele><time>2026-04-11T10:38:26.747Z</time></trkpt><trkpt lat="37.0241621" lon="15.3190708"><ele>12.0</ele><time>2026-04-11T10:38:28.746Z</time></trkpt><trkpt lat="37.0241885" lon="15.3191919"><ele>11.142857142857142</ele><time>2026-04-11T10:38:30.747Z</time></trkpt><trkpt lat="37.0242141" lon="15.3192773"><ele>10.285714285714285</ele><time>2026-04-11T10:38:32.746Z</time></trkpt><trkpt lat="37.0242362" lon="15.3193537"><ele>9.428571428571427</ele><time>2026-04-11T10:38:34.746Z</time></trkpt><trkpt lat="37.0242673" lon="15.3194396"><ele>8.571428571428571</ele><time>2026-04-11T10:38:36.747Z</time></trkpt><trkpt lat="37.0242992" lon="15.3195404"><ele>7.7142857142857135</ele><time>2026-04-11T10:38:38.747Z</time></trkpt><trkpt lat="37.0243511" lon="15.3196025"><ele>6.857142857142857</ele><time>2026-04-11T10:38:39.746Z</time></trkpt><trkpt lat="37.0244152" lon="15.3196497"><ele>6.0</ele><time>2026-04-11T10:38:40.747Z</time></trkpt><trkpt lat="37.0244817" lon="15.31968"><ele>6.0</ele><time>2026-04-11T10:38:41.746Z</time></trkpt><trkpt lat="37.0245608" lon="15.3197033"><ele>6.0</ele><time>2026-04-11T10:38:42.747Z</time></trkpt><trkpt lat="37.0246241" lon="15.3197119"><ele>6.0</ele><time>2026-04-11T10:38:43.747Z</time></trkpt><trkpt lat="37.0247528" lon="15.3197197"><ele>6.0</ele><time>2026-04-11T10:38:45.747Z</time></trkpt><trkpt lat="37.0248766" lon="15.3197183"><ele>6.0</ele><time>2026-04-11T10:38:47.747Z</time></trkpt><trkpt lat="37.0249782" lon="15.3197306"><ele>6.5</ele><time>2026-04-11T10:38:49.746Z</time></trkpt><trkpt lat="37.0250682" lon="15.3197242"><ele>7.0</ele><time>2026-04-11T10:38:51.746Z</time></trkpt><trkpt lat="37.0251304" lon="15.3196939"><ele>7.5</ele><time>2026-04-11T10:38:52.746Z</time></trkpt><trkpt lat="37.0252579" lon="15.3197222"><ele>8.0</ele><time>2026-04-11T10:38:54.746Z</time></trkpt><trkpt lat="37.0253221" lon="15.3197215"><ele>8.5</ele><time>2026-04-11T10:38:55.746Z</time></trkpt><trkpt lat="37.0253869" lon="15.319708"><ele>9.0</ele><time>2026-04-11T10:38:56.746Z</time></trkpt><trkpt lat="37.025448" lon="15.3196847"><ele>9.0</ele><time>2026-04-11T10:38:57.747Z</time></trkpt><trkpt lat="37.0255482" lon="15.3195973"><ele>9.0</ele><time>2026-04-11T10:38:59.746Z</time></trkpt><trkpt lat="37.0256099" lon="15.3195536"><ele>9.0</ele><time>2026-04-11T10:39:00.746Z</time></trkpt><trkpt lat="37.0256872" lon="15.3194612"><ele>9.0</ele><time>2026-04-11T10:39:02.745Z</time></trkpt><trkpt lat="37.0257563" lon="15.3193908"><ele>9.0</ele><time>2026-04-11T10:39:05.745Z</time></trkpt><trkpt lat="37.0258347" lon="15.3193379"><ele>9.0</ele><time>2026-04-11T10:39:09.746Z</time></trkpt><trkpt lat="37.0259305" lon="15.3192869"><ele>9.0</ele><time>2026-04-11T10:39:11.746Z</time></trkpt><trkpt lat="37.0260002" lon="15.3192828"><ele>9.0</ele><time>2026-04-11T10:39:12.746Z</time></trkpt><trkpt lat="37.0260752" lon="15.319265"><ele>9.0</ele><time>2026-04-11T10:39:13.746Z</time></trkpt><trkpt lat="37.0261454" lon="15.3192464"><ele>9.0</ele><time>2026-04-11T10:39:14.746Z</time></trkpt><trkpt lat="37.0262518" lon="15.3192114"><ele>9.0</ele><time>2026-04-11T10:39:16.746Z</time></trkpt><trkpt lat="37.0263268" lon="15.3191519"><ele>9.0</ele><time>2026-04-11T10:39:18.745Z</time></trkpt><trkpt lat="37.0264018" lon="15.3190913"><ele>9.0</ele><time>2026-04-11T10:39:20.745Z</time></trkpt><trkpt lat="37.0264677" lon="15.3190177"><ele>9.0</ele><time>2026-04-11T10:39:22.745Z</time></trkpt><trkpt lat="37.0265518" lon="15.318939"><ele>9.0</ele><time>2026-04-11T10:39:24.746Z</time></trkpt><trkpt lat="37.026652" lon="15.3189087"><ele>9.0</ele><time>2026-04-11T10:39:26.746Z</time></trkpt><trkpt lat="37.0267186" lon="15.3188977"><ele>9.2</ele><time>2026-04-11T10:39:27.747Z</time></trkpt><trkpt lat="37.0267853" lon="15.3188854"><ele>9.4</ele><time>2026-04-11T10:39:28.746Z</time></trkpt><trkpt lat="37.0269034" lon="15.3188617"><ele>9.6</ele><time>2026-04-11T10:39:30.745Z</time></trkpt><trkpt lat="37.0270223" lon="15.3188531"><ele>9.8</ele><time>2026-04-11T10:39:32.745Z</time></trkpt><trkpt lat="37.027109" lon="15.3188308"><ele>10.0</ele><time>2026-04-11T10:39:34.745Z</time></trkpt><trkpt lat="37.0271757" lon="15.3187409"><ele>10.0</ele><time>2026-04-11T10:39:36.746Z</time></trkpt><trkpt lat="37.0272719" lon="15.318676"><ele>10.0</ele><time>2026-04-11T10:39:38.745Z</time></trkpt><trkpt lat="37.0273326" lon="15.3186252"><ele>10.0</ele><time>2026-04-11T10:39:39.746Z</time></trkpt><trkpt lat="37.0274395" lon="15.3185984"><ele>10.0</ele><time>2026-04-11T10:39:41.746Z</time></trkpt><trkpt lat="37.0275119" lon="15.3186197"><ele>10.0</ele><time>2026-04-11T10:39:42.746Z</time></trkpt><trkpt lat="37.0276068" lon="15.3186385"><ele>9.833333333333334</ele><time>2026-04-11T10:39:44.746Z</time></trkpt><trkpt lat="37.0276714" lon="15.3185894"><ele>9.666666666666668</ele><time>2026-04-11T10:39:47.745Z</time></trkpt><trkpt lat="37.0277258" lon="15.3185407"><ele>9.5</ele><time>2026-04-11T10:39:50.746Z</time></trkpt><trkpt lat="37.0277931" lon="15.3184882"><ele>9.333333333333334</ele><time>2026-04-11T10:39:52.746Z</time></trkpt><trkpt lat="37.0278618" lon="15.3184583"><ele>9.166666666666666</ele><time>2026-04-11T10:39:54.746Z</time></trkpt><trkpt lat="37.0279702" lon="15.3184328"><ele>9.0</ele><time>2026-04-11T10:39:56.745Z</time></trkpt><trkpt lat="37.0280276" lon="15.3183943"><ele>9.0</ele><time>2026-04-11T10:39:57.745Z</time></trkpt><trkpt lat="37.0281248" lon="15.318288"><ele>9.0</ele><time>2026-04-11T10:39:59.745Z</time></trkpt><trkpt lat="37.0281922" lon="15.3182128"><ele>9.0</ele><time>2026-04-11T10:40:00.745Z</time></trkpt><trkpt lat="37.0282437" lon="15.3181416"><ele>9.0</ele><time>2026-04-11T10:40:01.746Z</time></trkpt><trkpt lat="37.0282951" lon="15.3180775"><ele>9.0</ele><time>2026-04-11T10:40:02.746Z</time></trkpt><trkpt lat="37.0283485" lon="15.3180136"><ele>9.0</ele><time>2026-04-11T10:40:03.746Z</time></trkpt><trkpt lat="37.0284145" lon="15.3179595"><ele>9.666666666666666</ele><time>2026-04-11T10:40:04.746Z</time></trkpt><trkpt lat="37.028479" lon="15.317927"><ele>10.333333333333332</ele><time>2026-04-11T10:40:05.746Z</time></trkpt><trkpt lat="37.0285494" lon="15.3178996"><ele>11.0</ele><time>2026-04-11T10:40:06.746Z</time></trkpt><trkpt lat="37.0286387" lon="15.3178651"><ele>11.666666666666666</ele><time>2026-04-11T10:40:07.746Z</time></trkpt><trkpt lat="37.0287252" lon="15.3178194"><ele>12.333333333333332</ele><time>2026-04-11T10:40:08.746Z</time></trkpt><trkpt lat="37.0288007" lon="15.3177835"><ele>13.0</ele><time>2026-04-11T10:40:09.746Z</time></trkpt><trkpt lat="37.0288661" lon="15.3177485"><ele>13.0</ele><time>2026-04-11T10:40:10.746Z</time></trkpt><trkpt lat="37.0289296" lon="15.3177178"><ele>13.0</ele><time>2026-04-11T10:40:11.745Z</time></trkpt><trkpt lat="37.0289945" lon="15.3176977"><ele>13.0</ele><time>2026-04-11T10:40:12.745Z</time></trkpt><trkpt lat="37.0290664" lon="15.3176917"><ele>13.0</ele><time>2026-04-11T10:40:13.746Z</time></trkpt><trkpt lat="37.0291334" lon="15.3176827"><ele>13.0</ele><time>2026-04-11T10:40:14.745Z</time></trkpt><trkpt lat="37.0292055" lon="15.3176621"><ele>13.0</ele><time>2026-04-11T10:40:15.746Z</time></trkpt><trkpt lat="37.0292738" lon="15.3176523"><ele>13.0</ele><time>2026-04-11T10:40:16.746Z</time></trkpt><trkpt lat="37.0293372" lon="15.3176425"><ele>12.4</ele><time>2026-04-11T10:40:17.745Z</time></trkpt><trkpt lat="37.0294521" lon="15.3176114"><ele>11.8</ele><time>2026-04-11T10:40:19.746Z</time></trkpt><trkpt lat="37.0295597" lon="15.3175166"><ele>11.2</ele><time>2026-04-11T10:40:21.746Z</time></trkpt><trkpt lat="37.0296141" lon="15.3174434"><ele>10.6</ele><time>2026-04-11T10:40:22.746Z</time></trkpt><trkpt lat="37.0296703" lon="15.3173698"><ele>10.0</ele><time>2026-04-11T10:40:23.746Z</time></trkpt><trkpt lat="37.0297202" lon="15.3173026"><ele>10.0</ele><time>2026-04-11T10:40:24.746Z</time></trkpt><trkpt lat="37.0297642" lon="15.3172407"><ele>10.0</ele><time>2026-04-11T10:40:25.746Z</time></trkpt><trkpt lat="37.0298616" lon="15.3171383"><ele>10.0</ele><time>2026-04-11T10:40:27.746Z</time></trkpt><trkpt lat="37.0299101" lon="15.317081"><ele>10.0</ele><time>2026-04-11T10:40:28.745Z</time></trkpt><trkpt lat="37.0300036" lon="15.3170004"><ele>10.0</ele><time>2026-04-11T10:40:30.746Z</time></trkpt><trkpt lat="37.0300809" lon="15.3169003"><ele>10.166666666666668</ele><time>2026-04-11T10:40:32.745Z</time></trkpt><trkpt lat="37.0301311" lon="15.3168523"><ele>10.333333333333334</ele><time>2026-04-11T10:40:33.746Z</time></trkpt><trkpt lat="37.0302534" lon="15.3167915"><ele>10.5</ele><time>2026-04-11T10:40:35.746Z</time></trkpt><trkpt lat="37.0303234" lon="15.3167596"><ele>10.666666666666666</ele><time>2026-04-11T10:40:36.746Z</time></trkpt><trkpt lat="37.0304057" lon="15.3167049"><ele>10.833333333333332</ele><time>2026-04-11T10:40:37.746Z</time></trkpt><trkpt lat="37.030472" lon="15.3166601"><ele>11.0</ele><time>2026-04-11T10:40:38.746Z</time></trkpt><trkpt lat="37.030543" lon="15.316606"><ele>11.0</ele><time>2026-04-11T10:40:39.746Z</time></trkpt><trkpt lat="37.0306081" lon="15.3165569"><ele>11.0</ele><time>2026-04-11T10:40:40.746Z</time></trkpt><trkpt lat="37.0306797" lon="15.3165066"><ele>11.0</ele><time>2026-04-11T10:40:41.746Z</time></trkpt><trkpt lat="37.0307524" lon="15.316455"><ele>11.0</ele><time>2026-04-11T10:40:42.745Z</time></trkpt><trkpt lat="37.03084" lon="15.316413"><ele>11.0</ele><time>2026-04-11T10:40:43.746Z</time></trkpt><trkpt lat="37.0309089" lon="15.3163684"><ele>11.0</ele><time>2026-04-11T10:40:44.746Z</time></trkpt><trkpt lat="37.0309811" lon="15.3163361"><ele>11.166666666666666</ele><time>2026-04-11T10:40:45.746Z</time></trkpt><trkpt lat="37.0310603" lon="15.3163085"><ele>11.333333333333332</ele><time>2026-04-11T10:40:46.746Z</time></trkpt><trkpt lat="37.0311332" lon="15.3162761"><ele>11.5</ele><time>2026-04-11T10:40:47.745Z</time></trkpt><trkpt lat="37.0312055" lon="15.3162379"><ele>11.666666666666666</ele><time>2026-04-11T10:40:48.746Z</time></trkpt><trkpt lat="37.0312731" lon="15.3161821"><ele>11.833333333333334</ele><time>2026-04-11T10:40:49.746Z</time></trkpt><trkpt lat="37.0313389" lon="15.3161262"><ele>12.0</ele><time>2026-04-11T10:40:50.745Z</time></trkpt><trkpt lat="37.0313988" lon="15.3160807"><ele>12.0</ele><time>2026-04-11T10:40:51.746Z</time></trkpt><trkpt lat="37.0314619" lon="15.3160526"><ele>12.0</ele><time>2026-04-11T10:40:52.747Z</time></trkpt><trkpt lat="37.0315912" lon="15.3160202"><ele>12.0</ele><time>2026-04-11T10:40:54.745Z</time></trkpt><trkpt lat="37.0316712" lon="15.3160042"><ele>12.0</ele><time>2026-04-11T10:40:55.745Z</time></trkpt><trkpt lat="37.0317483" lon="15.3159871"><ele>12.0</ele><time>2026-04-11T10:40:56.746Z</time></trkpt><trkpt lat="37.0318238" lon="15.3159626"><ele>12.0</ele><time>2026-04-11T10:40:57.745Z</time></trkpt><trkpt lat="37.0318863" lon="15.3159364"><ele>11.4</ele><time>2026-04-11T10:40:58.745Z</time></trkpt><trkpt lat="37.0319496" lon="15.3159039"><ele>10.799999999999999</ele><time>2026-04-11T10:40:59.746Z</time></trkpt><trkpt lat="37.0320535" lon="15.3158269"><ele>10.2</ele><time>2026-04-11T10:41:01.745Z</time></trkpt><trkpt lat="37.0321581" lon="15.3157377"><ele>9.6</ele><time>2026-04-11T10:41:03.746Z</time></trkpt><trkpt lat="37.032273" lon="15.3156642"><ele>9.0</ele><time>2026-04-11T10:41:05.746Z</time></trkpt><trkpt lat="37.0323271" lon="15.3156123"><ele>9.333333333333334</ele><time>2026-04-11T10:41:06.746Z</time></trkpt><trkpt lat="37.0323795" lon="15.3155502"><ele>9.666666666666666</ele><time>2026-04-11T10:41:07.745Z</time></trkpt><trkpt lat="37.0324287" lon="15.3154746"><ele>10.0</ele><time>2026-04-11T10:41:08.745Z</time></trkpt><trkpt lat="37.0324776" lon="15.315405"><ele>10.333333333333332</ele><time>2026-04-11T10:41:09.746Z</time></trkpt><trkpt lat="37.0325434" lon="15.3153286"><ele>10.666666666666666</ele><time>2026-04-11T10:41:10.745Z</time></trkpt><trkpt lat="37.0326186" lon="15.315252"><ele>11.0</ele><time>2026-04-11T10:41:11.746Z</time></trkpt><trkpt lat="37.0326796" lon="15.3151863"><ele>11.0</ele><time>2026-04-11T10:41:12.745Z</time></trkpt><trkpt lat="37.0327376" lon="15.3151266"><ele>11.0</ele><time>2026-04-11T10:41:13.746Z</time></trkpt><trkpt lat="37.0327969" lon="15.3150684"><ele>11.0</ele><time>2026-04-11T10:41:14.745Z</time></trkpt><trkpt lat="37.0328519" lon="15.3150271"><ele>11.0</ele><time>2026-04-11T10:41:15.746Z</time></trkpt><trkpt lat="37.0329537" lon="15.3149848"><ele>11.0</ele><time>2026-04-11T10:41:17.745Z</time></trkpt><trkpt lat="37.0330165" lon="15.3149681"><ele>11.0</ele><time>2026-04-11T10:41:19.746Z</time></trkpt><trkpt lat="37.0329067" lon="15.3149868"><ele>11.0</ele><time>2026-04-11T10:41:44.745Z</time></trkpt><trkpt lat="37.0328161" lon="15.3150352"><ele>11.0</ele><time>2026-04-11T10:41:46.745Z</time></trkpt><trkpt lat="37.0327221" lon="15.3151241"><ele>11.0</ele><time>2026-04-11T10:41:48.746Z</time></trkpt><trkpt lat="37.0326712" lon="15.315175"><ele>11.0</ele><time>2026-04-11T10:41:49.745Z</time></trkpt><trkpt lat="37.0326169" lon="15.3152384"><ele>11.0</ele><time>2026-04-11T10:41:50.745Z</time></trkpt><trkpt lat="37.0325633" lon="15.3153062"><ele>11.0</ele><time>2026-04-11T10:41:51.746Z</time></trkpt><trkpt lat="37.0325103" lon="15.3153636"><ele>11.5</ele><time>2026-04-11T10:41:52.746Z</time></trkpt><trkpt lat="37.0324257" lon="15.3154635"><ele>12.0</ele><time>2026-04-11T10:41:54.746Z</time></trkpt><trkpt lat="37.0323204" lon="15.3155373"><ele>12.5</ele><time>2026-04-11T10:41:56.746Z</time></trkpt><trkpt lat="37.0322404" lon="15.3156095"><ele>13.0</ele><time>2026-04-11T10:41:58.746Z</time></trkpt><trkpt lat="37.0321604" lon="15.3157219"><ele>12.0</ele><time>2026-04-11T10:42:00.746Z</time></trkpt><trkpt lat="37.0320691" lon="15.3158103"><ele>11.0</ele><time>2026-04-11T10:42:02.746Z</time></trkpt><trkpt lat="37.0319841" lon="15.3158808"><ele>10.0</ele><time>2026-04-11T10:42:04.746Z</time></trkpt><trkpt lat="37.0318847" lon="15.3159309"><ele>9.0</ele><time>2026-04-11T10:42:06.745Z</time></trkpt><trkpt lat="37.0317626" lon="15.315983"><ele>9.0</ele><time>2026-04-11T10:42:08.746Z</time></trkpt><trkpt lat="37.0316557" lon="15.3160081"><ele>9.0</ele><time>2026-04-11T10:42:10.745Z</time></trkpt><trkpt lat="37.0315561" lon="15.3160144"><ele>9.0</ele><time>2026-04-11T10:42:12.746Z</time></trkpt><trkpt lat="37.0314689" lon="15.3160251"><ele>9.0</ele><time>2026-04-11T10:42:14.746Z</time></trkpt><trkpt lat="37.0313501" lon="15.3161064"><ele>9.0</ele><time>2026-04-11T10:42:16.746Z</time></trkpt><trkpt lat="37.0312874" lon="15.3161724"><ele>8.666666666666666</ele><time>2026-04-11T10:42:17.745Z</time></trkpt><trkpt lat="37.0312271" lon="15.3162199"><ele>8.333333333333334</ele><time>2026-04-11T10:42:18.746Z</time></trkpt><trkpt lat="37.0311577" lon="15.3162598"><ele>8.0</ele><time>2026-04-11T10:42:19.746Z</time></trkpt><trkpt lat="37.0310775" lon="15.3162966"><ele>7.666666666666667</ele><time>2026-04-11T10:42:20.746Z</time></trkpt><trkpt lat="37.0309948" lon="15.3163269"><ele>7.333333333333334</ele><time>2026-04-11T10:42:21.745Z</time></trkpt><trkpt lat="37.0309223" lon="15.3163594"><ele>7.0</ele><time>2026-04-11T10:42:22.746Z</time></trkpt><trkpt lat="37.0308412" lon="15.3164097"><ele>7.8</ele><time>2026-04-11T10:42:23.746Z</time></trkpt><trkpt lat="37.0307552" lon="15.3164547"><ele>8.6</ele><time>2026-04-11T10:42:24.746Z</time></trkpt><trkpt lat="37.0306798" lon="15.3165009"><ele>9.4</ele><time>2026-04-11T10:42:25.747Z</time></trkpt><trkpt lat="37.0305978" lon="15.3165668"><ele>10.200000000000001</ele><time>2026-04-11T10:42:26.746Z</time></trkpt><trkpt lat="37.0305058" lon="15.3166343"><ele>11.0</ele><time>2026-04-11T10:42:27.745Z</time></trkpt><trkpt lat="37.0304251" lon="15.3166936"><ele>11.0</ele><time>2026-04-11T10:42:28.746Z</time></trkpt><trkpt lat="37.0303511" lon="15.3167388"><ele>11.0</ele><time>2026-04-11T10:42:29.746Z</time></trkpt><trkpt lat="37.0302837" lon="15.3167718"><ele>11.0</ele><time>2026-04-11T10:42:30.746Z</time></trkpt><trkpt lat="37.0301711" lon="15.316824"><ele>11.0</ele><time>2026-04-11T10:42:32.745Z</time></trkpt><trkpt lat="37.0300726" lon="15.3169042"><ele>11.0</ele><time>2026-04-11T10:42:34.745Z</time></trkpt><trkpt lat="37.0299873" lon="15.3170013"><ele>10.8</ele><time>2026-04-11T10:42:36.746Z</time></trkpt><trkpt lat="37.0298972" lon="15.3170872"><ele>10.600000000000001</ele><time>2026-04-11T10:42:38.745Z</time></trkpt><trkpt lat="37.029811" lon="15.3171949"><ele>10.4</ele><time>2026-04-11T10:42:40.746Z</time></trkpt><trkpt lat="37.0297613" lon="15.3172526"><ele>10.2</ele><time>2026-04-11T10:42:41.746Z</time></trkpt><trkpt lat="37.0297067" lon="15.3173347"><ele>10.0</ele><time>2026-04-11T10:42:42.746Z</time></trkpt><trkpt lat="37.0296466" lon="15.3174166"><ele>10.0</ele><time>2026-04-11T10:42:43.745Z</time></trkpt><trkpt lat="37.0295868" lon="15.3174804"><ele>10.0</ele><time>2026-04-11T10:42:44.746Z</time></trkpt><trkpt lat="37.0295362" lon="15.3175362"><ele>10.0</ele><time>2026-04-11T10:42:45.746Z</time></trkpt><trkpt lat="37.0294833" lon="15.3175871"><ele>10.0</ele><time>2026-04-11T10:42:46.746Z</time></trkpt><trkpt lat="37.0293817" lon="15.3176454"><ele>10.0</ele><time>2026-04-11T10:42:48.746Z</time></trkpt><trkpt lat="37.0292633" lon="15.3176536"><ele>10.0</ele><time>2026-04-11T10:42:50.746Z</time></trkpt><trkpt lat="37.0291472" lon="15.3176793"><ele>10.6</ele><time>2026-04-11T10:42:52.746Z</time></trkpt><trkpt lat="37.0290211" lon="15.3176974"><ele>11.2</ele><time>2026-04-11T10:42:54.746Z</time></trkpt><trkpt lat="37.0289183" lon="15.317715"><ele>11.8</ele><time>2026-04-11T10:42:56.745Z</time></trkpt><trkpt lat="37.0288456" lon="15.3177534"><ele>12.4</ele><time>2026-04-11T10:42:57.746Z</time></trkpt><trkpt lat="37.0287251" lon="15.317828"><ele>13.0</ele><time>2026-04-11T10:42:59.746Z</time></trkpt><trkpt lat="37.0286494" lon="15.3178584"><ele>12.999999999999998</ele><time>2026-04-11T10:43:00.746Z</time></trkpt><trkpt lat="37.0285891" lon="15.317883"><ele>13.0</ele><time>2026-04-11T10:43:01.745Z</time></trkpt><trkpt lat="37.0285249" lon="15.3179035"><ele>13.0</ele><time>2026-04-11T10:43:02.746Z</time></trkpt><trkpt lat="37.028464" lon="15.3179305"><ele>13.0</ele><time>2026-04-11T10:43:03.746Z</time></trkpt><trkpt lat="37.0283515" lon="15.3180133"><ele>12.999999999999998</ele><time>2026-04-11T10:43:05.746Z</time></trkpt><trkpt lat="37.0283016" lon="15.3180663"><ele>13.0</ele><time>2026-04-11T10:43:06.746Z</time></trkpt><trkpt lat="37.028216" lon="15.3181866"><ele>12.333333333333332</ele><time>2026-04-11T10:43:08.746Z</time></trkpt><trkpt lat="37.0281679" lon="15.3182447"><ele>11.666666666666666</ele><time>2026-04-11T10:43:09.745Z</time></trkpt><trkpt lat="37.0281113" lon="15.3183078"><ele>11.0</ele><time>2026-04-11T10:43:10.746Z</time></trkpt><trkpt lat="37.0280154" lon="15.318401"><ele>10.333333333333332</ele><time>2026-04-11T10:43:12.745Z</time></trkpt><trkpt lat="37.0279332" lon="15.3184562"><ele>9.666666666666666</ele><time>2026-04-11T10:43:14.745Z</time></trkpt><trkpt lat="37.0278563" lon="15.3184634"><ele>9.0</ele><time>2026-04-11T10:43:17.745Z</time></trkpt><trkpt lat="37.0277776" lon="15.3184899"><ele>9.0</ele><time>2026-04-11T10:43:20.745Z</time></trkpt><trkpt lat="37.0277195" lon="15.3185583"><ele>9.0</ele><time>2026-04-11T10:43:23.744Z</time></trkpt><trkpt lat="37.0276488" lon="15.318587"><ele>9.0</ele><time>2026-04-11T10:43:28.745Z</time></trkpt><trkpt lat="37.0275829" lon="15.3186474"><ele>9.0</ele><time>2026-04-11T10:43:31.745Z</time></trkpt><trkpt lat="37.0276554" lon="15.3186234"><ele>9.0</ele><time>2026-04-11T10:52:48.743Z</time></trkpt><trkpt lat="37.0277059" lon="15.3185401"><ele>9.0</ele><time>2026-04-11T10:52:51.743Z</time></trkpt><trkpt lat="37.0277719" lon="15.3185171"><ele>9.0</ele><time>2026-04-11T10:52:53.743Z</time></trkpt><trkpt lat="37.0278219" lon="15.3184672"><ele>9.0</ele><time>2026-04-11T10:52:55.742Z</time></trkpt><trkpt lat="37.0279139" lon="15.3184608"><ele>9.0</ele><time>2026-04-11T10:52:58.742Z</time></trkpt><trkpt lat="37.0279969" lon="15.3184206"><ele>9.0</ele><time>2026-04-11T10:53:00.743Z</time></trkpt><trkpt lat="37.0280508" lon="15.3183706"><ele>9.0</ele><time>2026-04-11T10:53:01.742Z</time></trkpt><trkpt lat="37.0281378" lon="15.3182792"><ele>9.0</ele><time>2026-04-11T10:53:03.743Z</time></trkpt><trkpt lat="37.0281866" lon="15.318218"><ele>9.0</ele><time>2026-04-11T10:53:04.742Z</time></trkpt><trkpt lat="37.0282438" lon="15.3181465"><ele>9.0</ele><time>2026-04-11T10:53:05.743Z</time></trkpt><trkpt lat="37.0282971" lon="15.3180773"><ele>9.0</ele><time>2026-04-11T10:53:06.743Z</time></trkpt><trkpt lat="37.0283494" lon="15.3180181"><ele>9.0</ele><time>2026-04-11T10:53:07.742Z</time></trkpt><trkpt lat="37.028419" lon="15.3179623"><ele>9.0</ele><time>2026-04-11T10:53:08.743Z</time></trkpt><trkpt lat="37.0284887" lon="15.3179259"><ele>9.0</ele><time>2026-04-11T10:53:09.743Z</time></trkpt><trkpt lat="37.0285763" lon="15.3178977"><ele>9.666666666666666</ele><time>2026-04-11T10:53:10.743Z</time></trkpt><trkpt lat="37.0286581" lon="15.3178501"><ele>10.333333333333332</ele><time>2026-04-11T10:53:11.742Z</time></trkpt><trkpt lat="37.0287422" lon="15.3178047"><ele>11.0</ele><time>2026-04-11T10:53:12.742Z</time></trkpt><trkpt lat="37.0288135" lon="15.3177715"><ele>11.666666666666666</ele><time>2026-04-11T10:53:13.744Z</time></trkpt><trkpt lat="37.0288825" lon="15.3177311"><ele>12.333333333333332</ele><time>2026-04-11T10:53:14.742Z</time></trkpt><trkpt lat="37.0289506" lon="15.3177046"><ele>13.0</ele><time>2026-04-11T10:53:15.742Z</time></trkpt><trkpt lat="37.0290233" lon="15.3176948"><ele>12.999999999999998</ele><time>2026-04-11T10:53:16.744Z</time></trkpt><trkpt lat="37.0290996" lon="15.3176917"><ele>13.0</ele><time>2026-04-11T10:53:17.743Z</time></trkpt><trkpt lat="37.0291613" lon="15.3176736"><ele>13.0</ele><time>2026-04-11T10:53:18.743Z</time></trkpt><trkpt lat="37.0292368" lon="15.3176559"><ele>13.0</ele><time>2026-04-11T10:53:19.742Z</time></trkpt><trkpt lat="37.029303" lon="15.3176444"><ele>12.999999999999998</ele><time>2026-04-11T10:53:20.742Z</time></trkpt><trkpt lat="37.0293676" lon="15.3176419"><ele>13.0</ele><time>2026-04-11T10:53:21.743Z</time></trkpt><trkpt lat="37.0294798" lon="15.317589"><ele>13.142857142857142</ele><time>2026-04-11T10:53:23.742Z</time></trkpt><trkpt lat="37.0295401" lon="15.3175374"><ele>13.285714285714286</ele><time>2026-04-11T10:53:24.742Z</time></trkpt><trkpt lat="37.0295926" lon="15.3174693"><ele>13.428571428571429</ele><time>2026-04-11T10:53:25.743Z</time></trkpt><trkpt lat="37.0296549" lon="15.3173845"><ele>13.571428571428571</ele><time>2026-04-11T10:53:26.743Z</time></trkpt><trkpt lat="37.0297065" lon="15.3173279"><ele>13.714285714285715</ele><time>2026-04-11T10:53:27.742Z</time></trkpt><trkpt lat="37.029749" lon="15.3172572"><ele>13.857142857142858</ele><time>2026-04-11T10:53:28.743Z</time></trkpt><trkpt lat="37.0297966" lon="15.3172043"><ele>14.0</ele><time>2026-04-11T10:53:29.743Z</time></trkpt><trkpt lat="37.0298626" lon="15.3171506"><ele>14.0</ele><time>2026-04-11T10:53:30.743Z</time></trkpt><trkpt lat="37.0299209" lon="15.3171174"><ele>13.999999999999998</ele><time>2026-04-11T10:53:31.743Z</time></trkpt><trkpt lat="37.0300198" lon="15.3170426"><ele>13.999999999999998</ele><time>2026-04-11T10:53:33.743Z</time></trkpt><trkpt lat="37.0300779" lon="15.316935"><ele>14.0</ele><time>2026-04-11T10:53:35.743Z</time></trkpt><trkpt lat="37.030155" lon="15.3168823"><ele>14.0</ele><time>2026-04-11T10:53:37.743Z</time></trkpt><trkpt lat="37.0302303" lon="15.3168062"><ele>13.500000000000002</ele><time>2026-04-11T10:53:39.742Z</time></trkpt><trkpt lat="37.0302939" lon="15.31677"><ele>13.0</ele><time>2026-04-11T10:53:40.744Z</time></trkpt><trkpt lat="37.0303755" lon="15.3167297"><ele>12.5</ele><time>2026-04-11T10:53:41.743Z</time></trkpt><trkpt lat="37.030435" lon="15.3166837"><ele>12.0</ele><time>2026-04-11T10:53:42.743Z</time></trkpt><trkpt lat="37.0305165" lon="15.3166267"><ele>11.5</ele><time>2026-04-11T10:53:43.743Z</time></trkpt><trkpt lat="37.0305874" lon="15.3165704"><ele>11.0</ele><time>2026-04-11T10:53:44.743Z</time></trkpt><trkpt lat="37.0306623" lon="15.3165166"><ele>11.0</ele><time>2026-04-11T10:53:45.743Z</time></trkpt><trkpt lat="37.0307362" lon="15.3164642"><ele>11.0</ele><time>2026-04-11T10:53:46.743Z</time></trkpt><trkpt lat="37.0308129" lon="15.3164278"><ele>11.0</ele><time>2026-04-11T10:53:47.743Z</time></trkpt><trkpt lat="37.030883" lon="15.3163807"><ele>11.0</ele><time>2026-04-11T10:53:48.742Z</time></trkpt><trkpt lat="37.0309496" lon="15.3163393"><ele>11.0</ele><time>2026-04-11T10:53:49.743Z</time></trkpt><trkpt lat="37.0310211" lon="15.3163036"><ele>11.0</ele><time>2026-04-11T10:53:50.742Z</time></trkpt><trkpt lat="37.0310856" lon="15.31628"><ele>11.166666666666666</ele><time>2026-04-11T10:53:51.742Z</time></trkpt><trkpt lat="37.0311611" lon="15.3162648"><ele>11.333333333333332</ele><time>2026-04-11T10:53:52.742Z</time></trkpt><trkpt lat="37.0312178" lon="15.3162249"><ele>11.5</ele><time>2026-04-11T10:53:53.743Z</time></trkpt><trkpt lat="37.0312923" lon="15.3161583"><ele>11.666666666666666</ele><time>2026-04-11T10:53:54.743Z</time></trkpt><trkpt lat="37.0313574" lon="15.3161099"><ele>11.833333333333334</ele><time>2026-04-11T10:53:55.743Z</time></trkpt><trkpt lat="37.0314159" lon="15.3160697"><ele>12.0</ele><time>2026-04-11T10:53:56.743Z</time></trkpt><trkpt lat="37.031525" lon="15.3160326"><ele>11.5</ele><time>2026-04-11T10:53:58.743Z</time></trkpt><trkpt lat="37.0316479" lon="15.3160106"><ele>11.0</ele><time>2026-04-11T10:54:00.742Z</time></trkpt><trkpt lat="37.0317209" lon="15.3159961"><ele>10.5</ele><time>2026-04-11T10:54:01.743Z</time></trkpt><trkpt lat="37.0317825" lon="15.3159774"><ele>10.0</ele><time>2026-04-11T10:54:02.743Z</time></trkpt><trkpt lat="37.0318464" lon="15.3159559"><ele>9.5</ele><time>2026-04-11T10:54:03.742Z</time></trkpt><trkpt lat="37.0319546" lon="15.3159015"><ele>9.0</ele><time>2026-04-11T10:54:05.743Z</time></trkpt><trkpt lat="37.0320617" lon="15.3158106"><ele>9.0</ele><time>2026-04-11T10:54:07.743Z</time></trkpt><trkpt lat="37.0321266" lon="15.315751"><ele>9.0</ele><time>2026-04-11T10:54:08.743Z</time></trkpt><trkpt lat="37.0322315" lon="15.3156937"><ele>9.0</ele><time>2026-04-11T10:54:10.743Z</time></trkpt><trkpt lat="37.0323283" lon="15.3156065"><ele>9.0</ele><time>2026-04-11T10:54:12.742Z</time></trkpt><trkpt lat="37.0324126" lon="15.3154877"><ele>9.0</ele><time>2026-04-11T10:54:14.742Z</time></trkpt><trkpt lat="37.0324631" lon="15.3154194"><ele>9.333333333333334</ele><time>2026-04-11T10:54:15.743Z</time></trkpt><trkpt lat="37.0325249" lon="15.3153543"><ele>9.666666666666666</ele><time>2026-04-11T10:54:16.743Z</time></trkpt><trkpt lat="37.0325915" lon="15.3152742"><ele>10.0</ele><time>2026-04-11T10:54:17.743Z</time></trkpt><trkpt lat="37.0326633" lon="15.3151865"><ele>10.333333333333332</ele><time>2026-04-11T10:54:18.743Z</time></trkpt><trkpt lat="37.0327271" lon="15.3151246"><ele>10.666666666666666</ele><time>2026-04-11T10:54:19.742Z</time></trkpt><trkpt lat="37.0327892" lon="15.3150682"><ele>11.0</ele><time>2026-04-11T10:54:20.743Z</time></trkpt><trkpt lat="37.0328581" lon="15.3150229"><ele>11.0</ele><time>2026-04-11T10:54:21.743Z</time></trkpt><trkpt lat="37.0329267" lon="15.3149963"><ele>11.0</ele><time>2026-04-11T10:54:22.743Z</time></trkpt><trkpt lat="37.0330003" lon="15.314979"><ele>11.0</ele><time>2026-04-11T10:54:23.742Z</time></trkpt><trkpt lat="37.0331234" lon="15.3149564"><ele>11.0</ele><time>2026-04-11T10:54:25.743Z</time></trkpt><trkpt lat="37.0331862" lon="15.3149334"><ele>11.0</ele><time>2026-04-11T10:54:26.743Z</time></trkpt><trkpt lat="37.0332511" lon="15.3149093"><ele>11.0</ele><time>2026-04-11T10:54:27.742Z</time></trkpt><trkpt lat="37.0333138" lon="15.3148812"><ele>10.666666666666666</ele><time>2026-04-11T10:54:28.743Z</time></trkpt><trkpt lat="37.0333765" lon="15.3148709"><ele>10.333333333333332</ele><time>2026-04-11T10:54:29.743Z</time></trkpt><trkpt lat="37.0334428" lon="15.3148632"><ele>10.0</ele><time>2026-04-11T10:54:30.743Z</time></trkpt><trkpt lat="37.033516" lon="15.3148515"><ele>9.666666666666666</ele><time>2026-04-11T10:54:31.743Z</time></trkpt><trkpt lat="37.0336412" lon="15.3148373"><ele>9.333333333333334</ele><time>2026-04-11T10:54:33.744Z</time></trkpt><trkpt lat="37.0337136" lon="15.3148294"><ele>9.0</ele><time>2026-04-11T10:54:34.743Z</time></trkpt><trkpt lat="37.0337899" lon="15.314827"><ele>9.0</ele><time>2026-04-11T10:54:35.742Z</time></trkpt><trkpt lat="37.033869" lon="15.314817"><ele>9.0</ele><time>2026-04-11T10:54:36.743Z</time></trkpt><trkpt lat="37.0339381" lon="15.3147818"><ele>9.0</ele><time>2026-04-11T10:54:37.743Z</time></trkpt><trkpt lat="37.0340266" lon="15.3147643"><ele>9.0</ele><time>2026-04-11T10:54:38.743Z</time></trkpt><trkpt lat="37.0340973" lon="15.3147523"><ele>9.0</ele><time>2026-04-11T10:54:39.743Z</time></trkpt><trkpt lat="37.0342148" lon="15.3147417"><ele>9.0</ele><time>2026-04-11T10:54:41.743Z</time></trkpt><trkpt lat="37.0343269" lon="15.3147402"><ele>9.4</ele><time>2026-04-11T10:54:43.742Z</time></trkpt><trkpt lat="37.0344419" lon="15.3147296"><ele>9.8</ele><time>2026-04-11T10:54:45.743Z</time></trkpt><trkpt lat="37.0345698" lon="15.3147021"><ele>10.200000000000001</ele><time>2026-04-11T10:54:47.743Z</time></trkpt><trkpt lat="37.0346335" lon="15.3146893"><ele>10.600000000000001</ele><time>2026-04-11T10:54:48.743Z</time></trkpt><trkpt lat="37.0347084" lon="15.3146745"><ele>11.0</ele><time>2026-04-11T10:54:49.743Z</time></trkpt><trkpt lat="37.0347888" lon="15.3146584"><ele>11.0</ele><time>2026-04-11T10:54:50.743Z</time></trkpt><trkpt lat="37.0348709" lon="15.314639"><ele>11.0</ele><time>2026-04-11T10:54:51.742Z</time></trkpt><trkpt lat="37.0349482" lon="15.3146354"><ele>11.0</ele><time>2026-04-11T10:54:52.742Z</time></trkpt><trkpt lat="37.0350359" lon="15.314661"><ele>11.0</ele><time>2026-04-11T10:54:53.743Z</time></trkpt><trkpt lat="37.0351553" lon="15.314662"><ele>11.0</ele><time>2026-04-11T10:54:55.743Z</time></trkpt><trkpt lat="37.0352603" lon="15.3145922"><ele>10.666666666666666</ele><time>2026-04-11T10:54:57.742Z</time></trkpt><trkpt lat="37.0353218" lon="15.3145387"><ele>10.333333333333332</ele><time>2026-04-11T10:54:58.743Z</time></trkpt><trkpt lat="37.0353952" lon="15.3144897"><ele>10.0</ele><time>2026-04-11T10:54:59.743Z</time></trkpt><trkpt lat="37.0354726" lon="15.3144427"><ele>9.666666666666666</ele><time>2026-04-11T10:55:00.743Z</time></trkpt><trkpt lat="37.0355489" lon="15.3144064"><ele>9.333333333333334</ele><time>2026-04-11T10:55:01.743Z</time></trkpt><trkpt lat="37.0356309" lon="15.3143708"><ele>9.0</ele><time>2026-04-11T10:55:02.743Z</time></trkpt><trkpt lat="37.0357158" lon="15.3143348"><ele>9.0</ele><time>2026-04-11T10:55:03.743Z</time></trkpt><trkpt lat="37.0357912" lon="15.3142859"><ele>9.0</ele><time>2026-04-11T10:55:04.742Z</time></trkpt><trkpt lat="37.0358665" lon="15.3142311"><ele>9.0</ele><time>2026-04-11T10:55:05.743Z</time></trkpt><trkpt lat="37.0359415" lon="15.3141848"><ele>9.0</ele><time>2026-04-11T10:55:06.743Z</time></trkpt><trkpt lat="37.0360082" lon="15.3141442"><ele>9.0</ele><time>2026-04-11T10:55:07.743Z</time></trkpt><trkpt lat="37.036066" lon="15.314109"><ele>9.0</ele><time>2026-04-11T10:55:08.743Z</time></trkpt><trkpt lat="37.0361327" lon="15.3140739"><ele>9.0</ele><time>2026-04-11T10:55:09.743Z</time></trkpt><trkpt lat="37.0362127" lon="15.3140742"><ele>9.0</ele><time>2026-04-11T10:55:10.743Z</time></trkpt><trkpt lat="37.0362899" lon="15.3140768"><ele>9.0</ele><time>2026-04-11T10:55:11.742Z</time></trkpt><trkpt lat="37.0363566" lon="15.314073"><ele>9.0</ele><time>2026-04-11T10:55:12.743Z</time></trkpt><trkpt lat="37.0364549" lon="15.3140889"><ele>9.0</ele><time>2026-04-11T10:55:14.742Z</time></trkpt><trkpt lat="37.0365166" lon="15.3140371"><ele>9.0</ele><time>2026-04-11T10:55:16.742Z</time></trkpt><trkpt lat="37.036587" lon="15.3138877"><ele>8.857142857142858</ele><time>2026-04-11T10:55:18.742Z</time></trkpt><trkpt lat="37.0366367" lon="15.3138125"><ele>8.714285714285715</ele><time>2026-04-11T10:55:19.743Z</time></trkpt><trkpt lat="37.0366926" lon="15.3137515"><ele>8.571428571428571</ele><time>2026-04-11T10:55:20.743Z</time></trkpt><trkpt lat="37.0367447" lon="15.3136837"><ele>8.428571428571429</ele><time>2026-04-11T10:55:21.743Z</time></trkpt><trkpt lat="37.0367912" lon="15.3136058"><ele>8.285714285714285</ele><time>2026-04-11T10:55:22.743Z</time></trkpt><trkpt lat="37.0368325" lon="15.3135342"><ele>8.142857142857142</ele><time>2026-04-11T10:55:23.742Z</time></trkpt><trkpt lat="37.0368873" lon="15.3134831"><ele>8.0</ele><time>2026-04-11T10:55:24.743Z</time></trkpt><trkpt lat="37.0369997" lon="15.3133902"><ele>7.999999999999999</ele><time>2026-04-11T10:55:26.743Z</time></trkpt><trkpt lat="37.0370582" lon="15.3133234"><ele>8.0</ele><time>2026-04-11T10:55:27.743Z</time></trkpt><trkpt lat="37.0371148" lon="15.3132429"><ele>8.0</ele><time>2026-04-11T10:55:28.742Z</time></trkpt><trkpt lat="37.03717" lon="15.3131636"><ele>8.0</ele><time>2026-04-11T10:55:29.743Z</time></trkpt><trkpt lat="37.037232" lon="15.3130927"><ele>7.999999999999999</ele><time>2026-04-11T10:55:30.743Z</time></trkpt><trkpt lat="37.0373015" lon="15.3130182"><ele>8.0</ele><time>2026-04-11T10:55:31.743Z</time></trkpt><trkpt lat="37.0373514" lon="15.312952"><ele>8.0</ele><time>2026-04-11T10:55:32.742Z</time></trkpt><trkpt lat="37.0373801" lon="15.3128805"><ele>7.999999999999999</ele><time>2026-04-11T10:55:33.743Z</time></trkpt><trkpt lat="37.0373917" lon="15.312787"><ele>8.0</ele><time>2026-04-11T10:55:34.743Z</time></trkpt><trkpt lat="37.0374117" lon="15.3127099"><ele>8.0</ele><time>2026-04-11T10:55:35.743Z</time></trkpt><trkpt lat="37.0374559" lon="15.3126513"><ele>7.999999999999999</ele><time>2026-04-11T10:55:36.743Z</time></trkpt><trkpt lat="37.0375283" lon="15.3125847"><ele>8.0</ele><time>2026-04-11T10:55:37.743Z</time></trkpt><trkpt lat="37.0375835" lon="15.3125334"><ele>8.0</ele><time>2026-04-11T10:55:38.743Z</time></trkpt><trkpt lat="37.0376385" lon="15.3124719"><ele>7.999999999999999</ele><time>2026-04-11T10:55:39.743Z</time></trkpt><trkpt lat="37.0376926" lon="15.3124039"><ele>8.0</ele><time>2026-04-11T10:55:40.742Z</time></trkpt><trkpt lat="37.0377361" lon="15.3123211"><ele>8.0</ele><time>2026-04-11T10:55:41.743Z</time></trkpt><trkpt lat="37.0377624" lon="15.3122386"><ele>8.0</ele><time>2026-04-11T10:55:42.743Z</time></trkpt><trkpt lat="37.0377691" lon="15.3121376"><ele>7.999999999999999</ele><time>2026-04-11T10:55:43.743Z</time></trkpt><trkpt lat="37.0377548" lon="15.312028"><ele>8.0</ele><time>2026-04-11T10:55:44.743Z</time></trkpt><trkpt lat="37.0377285" lon="15.311937"><ele>7.999999999999999</ele><time>2026-04-11T10:55:45.742Z</time></trkpt><trkpt lat="37.0377017" lon="15.3118543"><ele>8.0</ele><time>2026-04-11T10:55:46.742Z</time></trkpt><trkpt lat="37.0376809" lon="15.3117289"><ele>8.0</ele><time>2026-04-11T10:55:48.742Z</time></trkpt><trkpt lat="37.0376796" lon="15.3116248"><ele>8.0</ele><time>2026-04-11T10:55:50.743Z</time></trkpt><trkpt lat="37.0376696" lon="15.3115367"><ele>7.999999999999999</ele><time>2026-04-11T10:55:52.743Z</time></trkpt><trkpt lat="37.0376662" lon="15.3114143"><ele>8.0</ele><time>2026-04-11T10:55:54.743Z</time></trkpt><trkpt lat="37.0376451" lon="15.3113001"><ele>7.999999999999999</ele><time>2026-04-11T10:55:56.742Z</time></trkpt><trkpt lat="37.0375711" lon="15.3112411"><ele>8.0</ele><time>2026-04-11T10:55:59.743Z</time></trkpt><trkpt lat="37.0375067" lon="15.3111962"><ele>8.0</ele><time>2026-04-11T10:56:01.742Z</time></trkpt><trkpt lat="37.0374729" lon="15.3111262"><ele>8.0</ele><time>2026-04-11T10:56:21.743Z</time></trkpt><trkpt lat="37.0374556" lon="15.311039"><ele>7.999999999999999</ele><time>2026-04-11T10:56:25.743Z</time></trkpt><trkpt lat="37.0373906" lon="15.3109419"><ele>8.0</ele><time>2026-04-11T10:56:28.743Z</time></trkpt><trkpt lat="37.0373469" lon="15.3108661"><ele>9.8</ele><time>2026-04-11T10:56:31.743Z</time></trkpt><trkpt lat="37.0372741" lon="15.310847"><ele>11.600000000000001</ele><time>2026-04-11T11:02:58.741Z</time></trkpt><trkpt lat="37.0371797" lon="15.3108313"><ele>13.399999999999999</ele><time>2026-04-11T11:03:01.741Z</time></trkpt><trkpt lat="37.0371141" lon="15.3107715"><ele>15.2</ele><time>2026-04-11T11:03:03.741Z</time></trkpt><trkpt lat="37.0370444" lon="15.3106549"><ele>17.0</ele><time>2026-04-11T11:03:05.741Z</time></trkpt><trkpt lat="37.0370134" lon="15.3105135"><ele>17.0</ele><time>2026-04-11T11:03:07.74Z</time></trkpt><trkpt lat="37.0370356" lon="15.310365"><ele>17.0</ele><time>2026-04-11T11:03:09.741Z</time></trkpt><trkpt lat="37.0370663" lon="15.310286"><ele>17.0</ele><time>2026-04-11T11:03:10.741Z</time></trkpt><trkpt lat="37.0371288" lon="15.3101558"><ele>17.0</ele><time>2026-04-11T11:03:12.741Z</time></trkpt><trkpt lat="37.0371711" lon="15.3100796"><ele>17.0</ele><time>2026-04-11T11:03:13.74Z</time></trkpt><trkpt lat="37.0372105" lon="15.310011"><ele>17.0</ele><time>2026-04-11T11:03:14.74Z</time></trkpt><trkpt lat="37.0372903" lon="15.3099174"><ele>17.0</ele><time>2026-04-11T11:03:16.741Z</time></trkpt><trkpt lat="37.0373411" lon="15.3097859"><ele>17.0</ele><time>2026-04-11T11:03:18.74Z</time></trkpt><trkpt lat="37.0373838" lon="15.3096675"><ele>17.0</ele><time>2026-04-11T11:03:20.74Z</time></trkpt><trkpt lat="37.0374178" lon="15.309547"><ele>17.0</ele><time>2026-04-11T11:03:22.741Z</time></trkpt><trkpt lat="37.0374467" lon="15.3094278"><ele>17.0</ele><time>2026-04-11T11:03:24.741Z</time></trkpt><trkpt lat="37.0374615" lon="15.3093468"><ele>17.0</ele><time>2026-04-11T11:03:25.741Z</time></trkpt><trkpt lat="37.0374843" lon="15.309264"><ele>17.0</ele><time>2026-04-11T11:03:26.741Z</time></trkpt><trkpt lat="37.0375068" lon="15.3091848"><ele>17.0</ele><time>2026-04-11T11:03:27.741Z</time></trkpt><trkpt lat="37.0375435" lon="15.3090547"><ele>17.0</ele><time>2026-04-11T11:03:29.741Z</time></trkpt><trkpt lat="37.0375817" lon="15.308953"><ele>17.0</ele><time>2026-04-11T11:03:31.74Z</time></trkpt><trkpt lat="37.0376266" lon="15.308887"><ele>17.0</ele><time>2026-04-11T11:03:33.741Z</time></trkpt><trkpt lat="37.0376929" lon="15.3087864"><ele>17.0</ele><time>2026-04-11T11:03:37.741Z</time></trkpt><trkpt lat="37.0377435" lon="15.3086916"><ele>17.0</ele><time>2026-04-11T11:03:39.74Z</time></trkpt><trkpt lat="37.0377912" lon="15.3086141"><ele>17.0</ele><time>2026-04-11T11:03:40.741Z</time></trkpt><trkpt lat="37.0378455" lon="15.3085389"><ele>17.0</ele><time>2026-04-11T11:03:41.741Z</time></trkpt><trkpt lat="37.0378937" lon="15.3084671"><ele>17.0</ele><time>2026-04-11T11:03:42.741Z</time></trkpt><trkpt lat="37.037934" lon="15.308405"><ele>17.0</ele><time>2026-04-11T11:03:43.742Z</time></trkpt><trkpt lat="37.0379995" lon="15.3083016"><ele>17.0</ele><time>2026-04-11T11:03:45.741Z</time></trkpt><trkpt lat="37.0380515" lon="15.3082204"><ele>17.0</ele><time>2026-04-11T11:03:47.741Z</time></trkpt><trkpt lat="37.0380993" lon="15.3081256"><ele>17.0</ele><time>2026-04-11T11:03:49.74Z</time></trkpt><trkpt lat="37.0381273" lon="15.3080507"><ele>17.0</ele><time>2026-04-11T11:03:50.74Z</time></trkpt><trkpt lat="37.0381725" lon="15.3079798"><ele>17.0</ele><time>2026-04-11T11:03:51.741Z</time></trkpt><trkpt lat="37.0382194" lon="15.307918"><ele>17.4</ele><time>2026-04-11T11:03:52.741Z</time></trkpt><trkpt lat="37.0382755" lon="15.3078648"><ele>17.799999999999997</ele><time>2026-04-11T11:03:53.741Z</time></trkpt><trkpt lat="37.0383361" lon="15.3078064"><ele>18.2</ele><time>2026-04-11T11:03:54.741Z</time></trkpt><trkpt lat="37.0384199" lon="15.3077052"><ele>18.599999999999998</ele><time>2026-04-11T11:03:56.741Z</time></trkpt><trkpt lat="37.0384847" lon="15.3075994"><ele>19.0</ele><time>2026-04-11T11:03:58.74Z</time></trkpt><trkpt lat="37.0385402" lon="15.307509"><ele>18.599999999999998</ele><time>2026-04-11T11:04:00.741Z</time></trkpt><trkpt lat="37.0385884" lon="15.307432"><ele>18.2</ele><time>2026-04-11T11:04:02.741Z</time></trkpt><trkpt lat="37.0386373" lon="15.3073485"><ele>17.799999999999997</ele><time>2026-04-11T11:04:04.74Z</time></trkpt><trkpt lat="37.038683" lon="15.3072542"><ele>17.4</ele><time>2026-04-11T11:04:06.741Z</time></trkpt><trkpt lat="37.0387401" lon="15.3071339"><ele>17.0</ele><time>2026-04-11T11:04:08.74Z</time></trkpt><trkpt lat="37.038814" lon="15.3070187"><ele>17.0</ele><time>2026-04-11T11:04:10.741Z</time></trkpt><trkpt lat="37.0388855" lon="15.3069138"><ele>17.0</ele><time>2026-04-11T11:04:12.741Z</time></trkpt><trkpt lat="37.0389578" lon="15.3068188"><ele>17.0</ele><time>2026-04-11T11:04:14.741Z</time></trkpt><trkpt lat="37.0390501" lon="15.3067529"><ele>17.0</ele><time>2026-04-11T11:04:16.742Z</time></trkpt><trkpt lat="37.0391548" lon="15.306702"><ele>17.0</ele><time>2026-04-11T11:04:18.74Z</time></trkpt><trkpt lat="37.03924" lon="15.3066326"><ele>16.666666666666668</ele><time>2026-04-11T11:04:20.741Z</time></trkpt><trkpt lat="37.0393113" lon="15.3065444"><ele>16.333333333333336</ele><time>2026-04-11T11:04:22.741Z</time></trkpt><trkpt lat="37.0393796" lon="15.3064373"><ele>16.0</ele><time>2026-04-11T11:04:24.741Z</time></trkpt><trkpt lat="37.0394099" lon="15.306359"><ele>15.666666666666668</ele><time>2026-04-11T11:04:25.74Z</time></trkpt><trkpt lat="37.0394422" lon="15.3062847"><ele>15.333333333333334</ele><time>2026-04-11T11:04:26.741Z</time></trkpt><trkpt lat="37.0394791" lon="15.3062175"><ele>15.0</ele><time>2026-04-11T11:04:27.741Z</time></trkpt><trkpt lat="37.0395387" lon="15.3060986"><ele>15.0</ele><time>2026-04-11T11:04:29.741Z</time></trkpt><trkpt lat="37.0395798" lon="15.3060086"><ele>15.0</ele><time>2026-04-11T11:04:31.74Z</time></trkpt><trkpt lat="37.0396047" lon="15.305933"><ele>15.0</ele><time>2026-04-11T11:04:33.741Z</time></trkpt><trkpt lat="37.0395627" lon="15.3058236"><ele>15.0</ele><time>2026-04-11T11:04:36.74Z</time></trkpt><trkpt lat="37.0394756" lon="15.3057703"><ele>15.0</ele><time>2026-04-11T11:04:38.741Z</time></trkpt><trkpt lat="37.0393808" lon="15.3057071"><ele>15.0</ele><time>2026-04-11T11:04:40.741Z</time></trkpt><trkpt lat="37.0392967" lon="15.3056323"><ele>15.0</ele><time>2026-04-11T11:04:42.74Z</time></trkpt><trkpt lat="37.039242" lon="15.3055184"><ele>15.0</ele><time>2026-04-11T11:04:44.741Z</time></trkpt><trkpt lat="37.0392047" lon="15.3053758"><ele>15.0</ele><time>2026-04-11T11:04:46.741Z</time></trkpt><trkpt lat="37.0391889" lon="15.3052559"><ele>15.0</ele><time>2026-04-11T11:04:48.741Z</time></trkpt><trkpt lat="37.0391602" lon="15.3051635"><ele>15.0</ele><time>2026-04-11T11:04:50.74Z</time></trkpt><trkpt lat="37.0391237" lon="15.3050821"><ele>19.0</ele><time>2026-04-11T11:04:52.742Z</time></trkpt><trkpt lat="37.0391054" lon="15.3049932"><ele>19.0</ele><time>2026-04-11T11:04:54.741Z</time></trkpt><trkpt lat="37.0390763" lon="15.3049135"><ele>19.0</ele><time>2026-04-11T11:04:57.741Z</time></trkpt></trkseg></trk></gpx>